Wetterdaten: aktuell Samstag, 20.07.2019 10:21
Datum Zeit Temp. I. Temp. 2m Temp. Gh Feuchte I. Feuchte 2m Feuchte Gh Luftdruck Regen Wind Richtung Richtung ET Taupunkt Windchill Windben Empfang
20.07.2019 10:21 27,6 C 25,7 C 25,0 C 46 % 56 % 67 % 1017,0 hPa 0,0 l/m 1,6 km/h (1 Bft) O 90 0,000 mm 16,2 C 25,7 C 3,2 km/h (1 Bft) 100,00 %
20.07.2019 10:20 27,6 C 25,7 C 24,4 C 46 % 58 % 65 % 1016,9 hPa 0,0 l/m 1,6 km/h (1 Bft) O 90 0,000 mm 16,8 C 25,7 C 3,2 km/h (1 Bft) 100,00 %
20.07.2019 10:19 27,6 C 25,6 C 24,4 C 46 % 57 % 65 % 1016,9 hPa 0,0 l/m 3,2 km/h (1 Bft) NO 45 0,000 mm 16,4 C 25,6 C 6,4 km/h (2 Bft) 100,00 %
20.07.2019 10:18 27,6 C 25,6 C 24,4 C 46 % 57 % 65 % 1016,8 hPa 0,0 l/m 6,4 km/h (2 Bft) N-NO 22 0,000 mm 16,4 C 25,6 C 8,0 km/h (2 Bft) 95,65 %
20.07.2019 10:17 27,5 C 25,6 C 24,4 C 46 % 55 % 70 % 1016,9 hPa 0,0 l/m 4,8 km/h (1 Bft) N-NO 22 0,000 mm 15,9 C 25,6 C 11,3 km/h (2 Bft) 100,00 %
20.07.2019 10:16 27,5 C 25,6 C 24,4 C 47 % 54 % 69 % 1017,0 hPa 0,0 l/m 1,6 km/h (1 Bft) O-SO 112 0,000 mm 15,6 C 25,6 C 3,2 km/h (1 Bft) 100,00 %
20.07.2019 10:15 27,4 C 25,7 C 24,4 C 47 % 56 % 68 % 1016,9 hPa 0,0 l/m 3,2 km/h (1 Bft) O 90 0,000 mm 16,2 C 25,7 C 4,8 km/h (1 Bft) 100,00 %
20.07.2019 10:14 27,4 C 25,7 C 23,9 C 47 % 57 % 66 % 1016,9 hPa 0,0 l/m 3,2 km/h (1 Bft) O-SO 112 0,000 mm 16,5 C 25,7 C 4,8 km/h (1 Bft) 95,65 %
20.07.2019 10:13 27,4 C 25,7 C 23,9 C 47 % 58 % 65 % 1017,0 hPa 0,0 l/m 3,2 km/h (1 Bft) N 360 0,000 mm 16,8 C 25,7 C 6,4 km/h (2 Bft) 100,00 %
20.07.2019 10:12 27,4 C 25,6 C 23,9 C 47 % 57 % 66 % 1017,0 hPa 0,0 l/m 4,8 km/h (1 Bft) N-NW 337 0,000 mm 16,4 C 25,6 C 8,0 km/h (2 Bft) 100,00 %
20.07.2019 10:11 27,4 C 25,6 C 23,9 C 47 % 56 % 68 % 1017,0 hPa 0,0 l/m 4,8 km/h (1 Bft) N-NO 22 0,000 mm 16,2 C 25,6 C 6,4 km/h (2 Bft) 91,30 %
20.07.2019 10:10 27,4 C 25,6 C 23,9 C 47 % 57 % 67 % 1016,9 hPa 0,0 l/m 3,2 km/h (1 Bft) SO 135 0,000 mm 16,4 C 25,6 C 4,8 km/h (1 Bft) 100,00 %
20.07.2019 10:09 27,4 C 25,6 C 23,9 C 47 % 57 % 68 % 1017,0 hPa 0,0 l/m 6,4 km/h (2 Bft) NO 45 0,000 mm 16,4 C 25,6 C 8,0 km/h (2 Bft) 95,65 %
20.07.2019 10:08 27,4 C 25,6 C 23,9 C 47 % 55 % 69 % 1017,0 hPa 0,0 l/m 3,2 km/h (1 Bft) N-NO 22 0,000 mm 15,9 C 25,6 C 6,4 km/h (2 Bft) 100,00 %
20.07.2019 10:07 27,3 C 25,6 C 23,3 C 47 % 57 % 69 % 1016,9 hPa 0,0 l/m 3,2 km/h (1 Bft) O-NO 67 0,000 mm 16,4 C 25,6 C 6,4 km/h (2 Bft) 100,00 %
20.07.2019 10:06 27,4 C 25,5 C 23,3 C 47 % 57 % 70 % 1016,9 hPa 0,0 l/m 3,2 km/h (1 Bft) O 90 0,000 mm 16,3 C 25,5 C 4,8 km/h (1 Bft) 100,00 %
20.07.2019 10:05 27,3 C 25,4 C 23,3 C 47 % 55 % 71 % 1017,0 hPa 0,0 l/m 4,8 km/h (1 Bft) NO 45 0,000 mm 15,7 C 25,4 C 6,4 km/h (2 Bft) 100,00 %
20.07.2019 10:04 27,3 C 25,5 C 23,3 C 47 % 57 % 69 % 1016,9 hPa 0,0 l/m 1,6 km/h (1 Bft) N-NO 22 0,000 mm 16,3 C 25,5 C 3,2 km/h (1 Bft) 95,65 %
20.07.2019 10:03 27,3 C 25,5 C 23,3 C 47 % 57 % 69 % 1017,0 hPa 0,0 l/m 3,2 km/h (1 Bft) N-NO 22 0,000 mm 16,3 C 25,5 C 4,8 km/h (1 Bft) 100,00 %
20.07.2019 10:02 27,3 C 25,5 C 23,3 C 47 % 59 % 69 % 1017,0 hPa 0,0 l/m 4,8 km/h (1 Bft) N 360 0,000 mm 16,9 C 25,5 C 6,4 km/h (2 Bft) 100,00 %
20.07.2019 10:01 27,3 C 25,5 C 23,3 C 47 % 57 % 72 % 1016,9 hPa 0,0 l/m 6,4 km/h (2 Bft) N 360 0,000 mm 16,3 C 25,5 C 8,0 km/h (2 Bft) 95,65 %
20.07.2019 10:00 27,3 C 25,5 C 23,3 C 47 % 57 % 74 % 1017,0 hPa 0,0 l/m 4,8 km/h (1 Bft) N 360 0,000 mm 16,3 C 25,5 C 8,0 km/h (2 Bft) 100,00 %
20.07.2019 09:59 27,2 C 25,6 C 22,8 C 47 % 58 % 76 % 1017,0 hPa 0,0 l/m 1,6 km/h (1 Bft) N-NO 22 0,000 mm 16,7 C 25,6 C 4,8 km/h (1 Bft) 100,00 %
20.07.2019 09:58 27,2 C 25,5 C 22,8 C 47 % 56 % 75 % 1017,0 hPa 0,0 l/m 1,6 km/h (1 Bft) N-NO 22 0,000 mm 16,1 C 25,5 C 4,8 km/h (1 Bft) 95,65 %
20.07.2019 09:57 27,2 C 25,4 C 22,8 C 47 % 56 % 74 % 1016,9 hPa 0,0 l/m 3,2 km/h (1 Bft) O 90 0,000 mm 16,0 C 25,4 C 4,8 km/h (1 Bft) 100,00 %
20.07.2019 09:56 27,2 C 25,4 C 22,8 C 47 % 58 % 73 % 1016,9 hPa 0,0 l/m 3,2 km/h (1 Bft) O 90 0,000 mm 16,5 C 25,4 C 6,4 km/h (2 Bft) 95,65 %
20.07.2019 09:55 27,2 C 25,3 C 22,8 C 47 % 58 % 72 % 1016,8 hPa 0,0 l/m 3,2 km/h (1 Bft) O 90 0,000 mm 16,4 C 25,3 C 6,4 km/h (2 Bft) 100,00 %
20.07.2019 09:54 27,2 C 25,3 C 22,8 C 47 % 58 % 72 % 1016,8 hPa 0,0 l/m 3,2 km/h (1 Bft) NO 45 0,000 mm 16,4 C 25,3 C 6,4 km/h (2 Bft) 100,00 %
20.07.2019 09:53 27,2 C 25,2 C 22,8 C 47 % 56 % 72 % 1016,9 hPa 0,0 l/m 4,8 km/h (1 Bft) N-NO 22 0,000 mm 15,8 C 25,2 C 6,4 km/h (2 Bft) 100,00 %
20.07.2019 09:52 27,2 C 25,2 C 22,8 C 47 % 57 % 71 % 1016,9 hPa 0,0 l/m 3,2 km/h (1 Bft) SO 135 0,000 mm 16,1 C 25,2 C 4,8 km/h (1 Bft) 95,65 %
20.07.2019 09:51 27,1 C 25,2 C 22,8 C 47 % 60 % 70 % 1016,8 hPa 0,0 l/m 3,2 km/h (1 Bft) NO 45 0,000 mm 16,9 C 25,2 C 6,4 km/h (2 Bft) 100,00 %
20.07.2019 09:50 27,1 C 25,1 C 22,2 C 47 % 59 % 71 % 1016,9 hPa 0,0 l/m 4,8 km/h (1 Bft) N-NO 22 0,000 mm 16,5 C 25,1 C 8,0 km/h (2 Bft) 95,65 %
20.07.2019 09:49 27,1 C 25,1 C 22,2 C 47 % 60 % 73 % 1016,9 hPa 0,0 l/m 4,8 km/h (1 Bft) N 360 0,000 mm 16,8 C 25,1 C 6,4 km/h (2 Bft) 95,65 %
20.07.2019 09:48 27,1 C 25,1 C 22,2 C 47 % 60 % 75 % 1016,9 hPa 0,0 l/m 6,4 km/h (2 Bft) N 360 0,000 mm 16,8 C 25,1 C 6,4 km/h (2 Bft) 95,65 %
20.07.2019 09:47 27,1 C 25,1 C 22,2 C 47 % 58 % 75 % 1016,9 hPa 0,0 l/m 4,8 km/h (1 Bft) N-NO 22 0,000 mm 16,2 C 25,1 C 8,0 km/h (2 Bft) 100,00 %
20.07.2019 09:46 27,1 C 25,0 C 22,2 C 47 % 57 % 76 % 1016,9 hPa 0,0 l/m 1,6 km/h (1 Bft) NO 45 0,000 mm 15,9 C 25,0 C 3,2 km/h (1 Bft) 95,65 %
20.07.2019 09:45 27,1 C 24,9 C 22,2 C 47 % 59 % 74 % 1016,9 hPa 0,0 l/m 1,6 km/h (1 Bft) N-NW 337 0,000 mm 16,3 C 24,9 C 3,2 km/h (1 Bft) 95,65 %
20.07.2019 09:44 27,0 C 24,8 C 22,2 C 47 % 62 % 74 % 1016,9 hPa 0,0 l/m 3,2 km/h (1 Bft) N 360 0,000 mm 17,0 C 24,8 C 4,8 km/h (1 Bft) 100,00 %
20.07.2019 09:43 27,0 C 24,8 C 22,2 C 47 % 62 % 74 % 1016,8 hPa 0,0 l/m 4,8 km/h (1 Bft) NO 45 0,000 mm 17,0 C 24,8 C 6,4 km/h (2 Bft) 95,65 %
20.07.2019 09:42 26,9 C 24,7 C 22,2 C 47 % 60 % 76 % 1016,9 hPa 0,0 l/m 4,8 km/h (1 Bft) N-NO 22 0,000 mm 16,4 C 24,7 C 6,4 km/h (2 Bft) 91,30 %
20.07.2019 09:41 26,9 C 24,6 C 22,2 C 47 % 60 % 76 % 1016,9 hPa 0,0 l/m 3,2 km/h (1 Bft) N-NO 22 0,000 mm 16,3 C 24,6 C 4,8 km/h (1 Bft) 95,65 %
20.07.2019 09:40 26,9 C 24,4 C 21,7 C 47 % 62 % 75 % 1016,9 hPa 0,0 l/m 3,2 km/h (1 Bft) N-NO 22 0,000 mm 16,6 C 24,4 C 4,8 km/h (1 Bft) 100,00 %
20.07.2019 09:39 26,9 C 24,4 C 21,7 C 47 % 62 % 76 % 1016,9 hPa 0,0 l/m 4,8 km/h (1 Bft) N 360 0,000 mm 16,6 C 24,4 C 6,4 km/h (2 Bft) 95,65 %
20.07.2019 09:38 26,9 C 24,3 C 21,7 C 48 % 61 % 76 % 1016,9 hPa 0,0 l/m 3,2 km/h (1 Bft) N 360 0,000 mm 16,3 C 24,3 C 4,8 km/h (1 Bft) 95,65 %
20.07.2019 09:37 26,9 C 24,2 C 21,7 C 48 % 61 % 77 % 1017,0 hPa 0,0 l/m 4,8 km/h (1 Bft) NO 45 0,000 mm 16,2 C 24,2 C 6,4 km/h (2 Bft) 100,00 %
20.07.2019 09:36 26,9 C 24,1 C 21,7 C 48 % 62 % 77 % 1016,9 hPa 0,0 l/m 3,2 km/h (1 Bft) NO 45 0,000 mm 16,4 C 24,1 C 4,8 km/h (1 Bft) 95,65 %
20.07.2019 09:35 26,8 C 24,1 C 21,7 C 48 % 62 % 77 % 1016,9 hPa 0,0 l/m 1,6 km/h (1 Bft) N-NW 337 0,000 mm 16,4 C 24,1 C 4,8 km/h (1 Bft) 95,65 %
20.07.2019 09:34 26,8 C 23,9 C 21,7 C 48 % 64 % 76 % 1017,0 hPa 0,0 l/m 3,2 km/h (1 Bft) N 360 0,000 mm 16,7 C 23,9 C 4,8 km/h (1 Bft) 91,30 %
20.07.2019 09:33 26,8 C 23,9 C 21,7 C 48 % 63 % 75 % 1016,9 hPa 0,0 l/m 3,2 km/h (1 Bft) N-NW 337 0,000 mm 16,4 C 23,9 C 4,8 km/h (1 Bft) 100,00 %
20.07.2019 09:32 26,8 C 23,8 C 21,7 C 48 % 66 % 74 % 1017,0 hPa 0,0 l/m 4,8 km/h (1 Bft) N 360 0,000 mm 17,1 C 23,8 C 6,4 km/h (2 Bft) 95,65 %
20.07.2019 09:31 26,8 C 23,8 C 21,7 C 48 % 65 % 80 % 1017,0 hPa 0,0 l/m 6,4 km/h (2 Bft) N-NO 22 0,000 mm 16,8 C 23,8 C 8,0 km/h (2 Bft) 100,00 %
20.07.2019 09:30 26,8 C 23,8 C 21,7 C 48 % 62 % 81 % 1017,0 hPa 0,0 l/m 3,2 km/h (1 Bft) N 360 0,000 mm 16,1 C 23,8 C 6,4 km/h (2 Bft) 91,30 %
20.07.2019 09:29 26,7 C 23,8 C 21,7 C 48 % 62 % 80 % 1016,9 hPa 0,0 l/m 1,6 km/h (1 Bft) SO 135 0,000 mm 16,1 C 23,8 C 3,2 km/h (1 Bft) 91,30 %
20.07.2019 09:28 26,7 C 23,8 C 21,1 C 48 % 61 % 81 % 1016,9 hPa 0,0 l/m 1,6 km/h (1 Bft) SO 135 0,000 mm 15,8 C 23,8 C 4,8 km/h (1 Bft) 95,65 %
20.07.2019 09:27 26,7 C 23,7 C 21,1 C 48 % 63 % 80 % 1017,0 hPa 0,0 l/m 1,6 km/h (1 Bft) O-NO 67 0,000 mm 16,2 C 23,7 C 3,2 km/h (1 Bft) 91,30 %
20.07.2019 09:26 26,7 C 23,7 C 21,1 C 48 % 64 % 80 % 1017,0 hPa 0,0 l/m 1,6 km/h (1 Bft) O-NO 67 0,000 mm 16,5 C 23,7 C 3,2 km/h (1 Bft) 100,00 %
20.07.2019 09:25 26,7 C 23,7 C 21,1 C 48 % 61 % 81 % 1017,0 hPa 0,0 l/m 3,2 km/h (1 Bft) O-SO 112 0,000 mm 15,7 C 23,7 C 4,8 km/h (1 Bft) 95,65 %
20.07.2019 09:24 26,7 C 23,7 C 21,1 C 48 % 60 % 81 % 1017,0 hPa 0,0 l/m 1,6 km/h (1 Bft) O-SO 112 0,000 mm 15,5 C 23,7 C 4,8 km/h (1 Bft) 100,00 %
20.07.2019 09:23 26,7 C 23,7 C 21,1 C 48 % 60 % 81 % 1017,0 hPa 0,0 l/m 1,6 km/h (1 Bft) O-SO 112 0,000 mm 15,5 C 23,7 C 4,8 km/h (1 Bft) 95,65 %
20.07.2019 09:22 26,7 C 23,7 C 21,1 C 48 % 61 % 81 % 1016,9 hPa 0,0 l/m 1,6 km/h (1 Bft) O-SO 112 0,000 mm 15,7 C 23,7 C 3,2 km/h (1 Bft) 100,00 %
20.07.2019 09:21 26,7 C 23,6 C 21,1 C 48 % 65 % 81 % 1017,1 hPa 0,0 l/m 3,2 km/h (1 Bft) O-SO 112 0,000 mm 16,6 C 23,6 C 4,8 km/h (1 Bft) 91,30 %
20.07.2019 09:20 26,7 C 23,6 C 21,1 C 48 % 61 % 81 % 1016,9 hPa 0,0 l/m 4,8 km/h (1 Bft) O-SO 112 0,000 mm 15,6 C 23,6 C 6,4 km/h (2 Bft) 95,65 %
20.07.2019 09:19 26,7 C 23,6 C 21,1 C 48 % 64 % 81 % 1017,0 hPa 0,0 l/m 3,2 km/h (1 Bft) S-SO 157 0,000 mm 16,4 C 23,6 C 6,4 km/h (2 Bft) 95,65 %
20.07.2019 09:18 26,6 C 23,6 C 21,1 C 48 % 64 % 80 % 1017,1 hPa 0,0 l/m 3,2 km/h (1 Bft) S-SO 157 0,000 mm 16,4 C 23,6 C 3,2 km/h (1 Bft) 95,65 %
20.07.2019 09:17 26,6 C 23,5 C 20,6 C 48 % 63 % 79 % 1017,0 hPa 0,0 l/m 3,2 km/h (1 Bft) S-SO 157 0,000 mm 16,0 C 23,5 C 3,2 km/h (1 Bft) 100,00 %
20.07.2019 09:16 26,6 C 23,5 C 20,6 C 48 % 64 % 78 % 1016,9 hPa 0,0 l/m 3,2 km/h (1 Bft) NO 45 0,000 mm 16,3 C 23,5 C 4,8 km/h (1 Bft) 95,65 %
20.07.2019 09:15 26,6 C 23,5 C 20,6 C 48 % 63 % 77 % 1017,1 hPa 0,0 l/m 1,6 km/h (1 Bft) NO 45 0,000 mm 16,0 C 23,5 C 3,2 km/h (1 Bft) 100,00 %
20.07.2019 09:14 26,6 C 23,4 C 20,6 C 48 % 62 % 76 % 1017,0 hPa 0,0 l/m 3,2 km/h (1 Bft) O-SO 112 0,000 mm 15,7 C 23,4 C 4,8 km/h (1 Bft) 86,96 %
20.07.2019 09:13 26,6 C 23,4 C 20,6 C 48 % 64 % 75 % 1017,1 hPa 0,0 l/m 4,8 km/h (1 Bft) N-NO 22 0,000 mm 16,2 C 23,4 C 6,4 km/h (2 Bft) 100,00 %
20.07.2019 09:12 26,6 C 23,3 C 20,6 C 48 % 65 % 77 % 1016,9 hPa 0,0 l/m 6,4 km/h (2 Bft) N 360 0,000 mm 16,3 C 23,3 C 8,0 km/h (2 Bft) 95,65 %
20.07.2019 09:11 26,6 C 23,3 C 20,6 C 48 % 64 % 78 % 1017,0 hPa 0,0 l/m 6,4 km/h (2 Bft) N-NO 22 0,000 mm 16,1 C 23,3 C 8,0 km/h (2 Bft) 95,65 %
20.07.2019 09:10 26,6 C 23,3 C 20,6 C 48 % 64 % 78 % 1017,0 hPa 0,0 l/m 1,6 km/h (1 Bft) N 360 0,000 mm 16,1 C 23,3 C 4,8 km/h (1 Bft) 95,65 %
20.07.2019 09:09 26,6 C 23,2 C 20,6 C 48 % 63 % 76 % 1017,0 hPa 0,0 l/m 3,2 km/h (1 Bft) N 360 0,000 mm 15,8 C 23,2 C 4,8 km/h (1 Bft) 95,65 %
20.07.2019 09:08 26,6 C 23,2 C 20,6 C 48 % 65 % 77 % 1017,1 hPa 0,0 l/m 4,8 km/h (1 Bft) N-NO 22 0,000 mm 16,2 C 23,2 C 6,4 km/h (2 Bft) 100,00 %
20.07.2019 09:07 26,6 C 23,1 C 20,6 C 48 % 66 % 76 % 1017,0 hPa 0,0 l/m 3,2 km/h (1 Bft) N-NO 22 0,000 mm 16,4 C 23,1 C 4,8 km/h (1 Bft) 91,30 %
20.07.2019 09:06 26,5 C 23,1 C 20,6 C 48 % 64 % 79 % 1017,0 hPa 0,0 l/m 4,8 km/h (1 Bft) N-NO 22 0,000 mm 15,9 C 23,1 C 9,7 km/h (2 Bft) 95,65 %
20.07.2019 09:05 26,5 C 23,1 C 20,6 C 48 % 63 % 80 % 1017,0 hPa 0,0 l/m 6,4 km/h (2 Bft) N-NO 22 0,000 mm 15,7 C 23,1 C 9,7 km/h (2 Bft) 100,00 %
20.07.2019 09:04 26,5 C 23,1 C 20,6 C 48 % 65 % 80 % 1016,9 hPa 0,0 l/m 1,6 km/h (1 Bft) N-NO 22 0,000 mm 16,2 C 23,1 C 4,8 km/h (1 Bft) 100,00 %
20.07.2019 09:03 26,5 C 23,0 C 20,0 C 48 % 64 % 79 % 1017,1 hPa 0,0 l/m 0,0 km/h (0 Bft) NO 45 0,000 mm 15,8 C 23,0 C 1,6 km/h (1 Bft) 100,00 %
20.07.2019 09:02 26,4 C 22,9 C 20,0 C 48 % 64 % 79 % 1017,1 hPa 0,0 l/m 1,6 km/h (1 Bft) NO 45 0,000 mm 15,7 C 22,9 C 3,2 km/h (1 Bft) 100,00 %
20.07.2019 09:01 26,4 C 22,9 C 20,0 C 48 % 66 % 79 % 1017,1 hPa 0,0 l/m 1,6 km/h (1 Bft) NO 45 0,000 mm 16,2 C 22,9 C 3,2 km/h (1 Bft) 91,30 %
20.07.2019 09:00 26,4 C 22,9 C 20,0 C 48 % 65 % 79 % 1017,1 hPa 0,0 l/m 3,2 km/h (1 Bft) N-NO 22 0,000 mm 16,0 C 22,9 C 6,4 km/h (2 Bft) 95,65 %
20.07.2019 08:59 26,4 C 22,8 C 20,0 C 48 % 67 % 78 % 1017,0 hPa 0,0 l/m 3,2 km/h (1 Bft) N 360 0,000 mm 16,3 C 22,8 C 6,4 km/h (2 Bft) 100,00 %
20.07.2019 08:58 26,4 C 22,8 C 20,0 C 48 % 67 % 80 % 1017,0 hPa 0,0 l/m 3,2 km/h (1 Bft) N-NO 22 0,000 mm 16,3 C 22,8 C 4,8 km/h (1 Bft) 95,65 %
20.07.2019 08:57 26,4 C 22,7 C 20,0 C 48 % 67 % 80 % 1017,1 hPa 0,0 l/m 4,8 km/h (1 Bft) N-NO 22 0,000 mm 16,2 C 22,7 C 6,4 km/h (2 Bft) 100,00 %
20.07.2019 08:56 26,4 C 22,7 C 20,0 C 48 % 67 % 81 % 1017,0 hPa 0,0 l/m 4,8 km/h (1 Bft) NO 45 0,000 mm 16,2 C 22,7 C 6,4 km/h (2 Bft) 100,00 %
20.07.2019 08:55 26,4 C 22,6 C 20,0 C 48 % 67 % 80 % 1017,1 hPa 0,0 l/m 4,8 km/h (1 Bft) N 360 0,000 mm 16,2 C 22,6 C 8,0 km/h (2 Bft) 100,00 %
20.07.2019 08:54 26,4 C 22,5 C 20,0 C 48 % 67 % 80 % 1016,9 hPa 0,0 l/m 3,2 km/h (1 Bft) NO 45 0,000 mm 16,1 C 22,5 C 6,4 km/h (2 Bft) 100,00 %
20.07.2019 08:53 26,4 C 22,5 C 20,0 C 48 % 66 % 80 % 1017,1 hPa 0,0 l/m 4,8 km/h (1 Bft) N-NO 22 0,000 mm 15,8 C 22,5 C 6,4 km/h (2 Bft) 91,30 %
20.07.2019 08:52 26,3 C 22,4 C 20,0 C 48 % 67 % 79 % 1017,0 hPa 0,0 l/m 3,2 km/h (1 Bft) N-NO 22 0,000 mm 16,0 C 22,4 C 4,8 km/h (1 Bft) 100,00 %
20.07.2019 08:51 26,3 C 22,4 C 20,0 C 48 % 67 % 80 % 1017,0 hPa 0,0 l/m 4,8 km/h (1 Bft) N-NO 22 0,000 mm 16,0 C 22,4 C 8,0 km/h (2 Bft) 100,00 %
20.07.2019 08:50 26,3 C 22,4 C 20,0 C 48 % 67 % 80 % 1017,0 hPa 0,0 l/m 4,8 km/h (1 Bft) N 360 0,000 mm 16,0 C 22,4 C 6,4 km/h (2 Bft) 100,00 %
20.07.2019 08:49 26,3 C 22,4 C 20,0 C 48 % 68 % 81 % 1017,1 hPa 0,0 l/m 3,2 km/h (1 Bft) N-NO 22 0,000 mm 16,2 C 22,4 C 4,8 km/h (1 Bft) 100,00 %
20.07.2019 08:48 26,3 C 22,4 C 20,0 C 48 % 67 % 81 % 1017,0 hPa 0,0 l/m 1,6 km/h (1 Bft) N-NO 22 0,000 mm 16,0 C 22,4 C 4,8 km/h (1 Bft) 100,00 %
20.07.2019 08:47 26,3 C 22,4 C 19,4 C 48 % 68 % 82 % 1017,1 hPa 0,0 l/m 3,2 km/h (1 Bft) N-NO 22 0,000 mm 16,2 C 22,4 C 6,4 km/h (2 Bft) 100,00 %
20.07.2019 08:46 26,3 C 22,4 C 19,4 C 48 % 67 % 82 % 1016,9 hPa 0,0 l/m 1,6 km/h (1 Bft) N-NO 22 0,000 mm 16,0 C 22,4 C 4,8 km/h (1 Bft) 95,65 %
20.07.2019 08:45 26,3 C 22,4 C 19,4 C 48 % 67 % 82 % 1017,0 hPa 0,0 l/m 1,6 km/h (1 Bft) O-SO 112 0,000 mm 16,0 C 22,4 C 3,2 km/h (1 Bft) 100,00 %
20.07.2019 08:44 26,3 C 22,4 C 19,4 C 48 % 67 % 82 % 1017,0 hPa 0,0 l/m 3,2 km/h (1 Bft) O 90 0,000 mm 16,0 C 22,4 C 4,8 km/h (1 Bft) 100,00 %
20.07.2019 08:43 26,3 C 22,5 C 19,4 C 48 % 67 % 82 % 1017,1 hPa 0,0 l/m 0,0 km/h (0 Bft) N 360 0,000 mm 16,1 C 22,5 C 1,6 km/h (1 Bft) 100,00 %
20.07.2019 08:42 26,3 C 22,5 C 19,4 C 48 % 67 % 82 % 1017,0 hPa 0,0 l/m 3,2 km/h (1 Bft) N 360 0,000 mm 16,1 C 22,5 C 4,8 km/h (1 Bft) 100,00 %
20.07.2019 08:41 26,3 C 22,5 C 19,4 C 48 % 67 % 83 % 1017,0 hPa 0,0 l/m 3,2 km/h (1 Bft) N-NO 22 0,000 mm 16,1 C 22,5 C 4,8 km/h (1 Bft) 100,00 %
20.07.2019 08:40 26,3 C 22,5 C 19,4 C 48 % 66 % 83 % 1017,0 hPa 0,0 l/m 4,8 km/h (1 Bft) N 360 0,000 mm 15,8 C 22,5 C 6,4 km/h (2 Bft) 100,00 %
20.07.2019 08:39 26,3 C 22,6 C 19,4 C 48 % 66 % 84 % 1017,1 hPa 0,0 l/m 3,2 km/h (1 Bft) SO 135 0,000 mm 15,9 C 22,6 C 4,8 km/h (1 Bft) 95,65 %
20.07.2019 08:38 26,3 C 22,5 C 19,4 C 48 % 66 % 83 % 1017,0 hPa 0,0 l/m 3,2 km/h (1 Bft) O-SO 112 0,000 mm 15,8 C 22,5 C 4,8 km/h (1 Bft) 100,00 %
20.07.2019 08:37 26,3 C 22,5 C 19,4 C 48 % 66 % 83 % 1017,1 hPa 0,0 l/m 3,2 km/h (1 Bft) SO 135 0,000 mm 15,8 C 22,5 C 4,8 km/h (1 Bft) 100,00 %
20.07.2019 08:36 26,3 C 22,4 C 19,4 C 48 % 67 % 82 % 1017,0 hPa 0,0 l/m 3,2 km/h (1 Bft) O-SO 112 0,000 mm 16,0 C 22,4 C 4,8 km/h (1 Bft) 95,65 %
20.07.2019 08:35 26,3 C 22,4 C 19,4 C 48 % 67 % 82 % 1017,0 hPa 0,0 l/m 3,2 km/h (1 Bft) O-SO 112 0,000 mm 16,0 C 22,4 C 6,4 km/h (2 Bft) 95,65 %
20.07.2019 08:34 26,3 C 22,4 C 19,4 C 48 % 68 % 81 % 1017,0 hPa 0,0 l/m 3,2 km/h (1 Bft) N-NO 22 0,000 mm 16,2 C 22,4 C 4,8 km/h (1 Bft) 100,00 %
20.07.2019 08:33 26,2 C 22,3 C 19,4 C 48 % 69 % 81 % 1017,0 hPa 0,0 l/m 1,6 km/h (1 Bft) N-NO 22 0,000 mm 16,3 C 22,3 C 3,2 km/h (1 Bft) 91,30 %
20.07.2019 08:32 26,2 C 22,3 C 18,9 C 49 % 69 % 81 % 1017,0 hPa 0,0 l/m 1,6 km/h (1 Bft) N-NO 22 0,000 mm 16,3 C 22,3 C 3,2 km/h (1 Bft) 91,30 %
20.07.2019 08:31 26,2 C 22,2 C 18,9 C 49 % 69 % 81 % 1017,1 hPa 0,0 l/m 3,2 km/h (1 Bft) N-NO 22 0,000 mm 16,2 C 22,2 C 6,4 km/h (2 Bft) 100,00 %
20.07.2019 08:30 26,2 C 22,2 C 18,9 C 49 % 69 % 81 % 1017,0 hPa 0,0 l/m 3,2 km/h (1 Bft) N-NO 22 0,000 mm 16,2 C 22,2 C 4,8 km/h (1 Bft) 100,00 %
20.07.2019 08:29 26,2 C 22,1 C 18,9 C 49 % 70 % 83 % 1017,0 hPa 0,0 l/m 4,8 km/h (1 Bft) N 360 0,000 mm 16,4 C 22,1 C 8,0 km/h (2 Bft) 95,65 %
20.07.2019 08:28 26,2 C 22,1 C 18,9 C 49 % 68 % 83 % 1017,1 hPa 0,0 l/m 1,6 km/h (1 Bft) O 90 0,000 mm 15,9 C 22,1 C 6,4 km/h (2 Bft) 100,00 %
20.07.2019 08:27 26,2 C 21,9 C 18,9 C 49 % 70 % 83 % 1017,0 hPa 0,0 l/m 1,6 km/h (1 Bft) NO 45 0,000 mm 16,2 C 21,9 C 3,2 km/h (1 Bft) 95,65 %
20.07.2019 08:26 26,2 C 21,8 C 18,9 C 49 % 71 % 83 % 1017,0 hPa 0,0 l/m 3,2 km/h (1 Bft) O-NO 67 0,000 mm 16,3 C 21,8 C 4,8 km/h (1 Bft) 100,00 %
20.07.2019 08:25 26,1 C 21,8 C 18,9 C 49 % 70 % 82 % 1017,0 hPa 0,0 l/m 1,6 km/h (1 Bft) NO 45 0,000 mm 16,1 C 21,8 C 4,8 km/h (1 Bft) 95,65 %
20.07.2019 08:24 26,1 C 21,7 C 18,9 C 49 % 70 % 82 % 1017,1 hPa 0,0 l/m 1,6 km/h (1 Bft) NO 45 0,000 mm 16,0 C 21,7 C 4,8 km/h (1 Bft) 100,00 %
20.07.2019 08:23 26,1 C 21,6 C 18,9 C 49 % 71 % 82 % 1017,1 hPa 0,0 l/m 3,2 km/h (1 Bft) N-NO 22 0,000 mm 16,1 C 21,6 C 4,8 km/h (1 Bft) 95,65 %
20.07.2019 08:22 26,1 C 21,5 C 18,9 C 49 % 71 % 82 % 1017,1 hPa 0,0 l/m 3,2 km/h (1 Bft) N-NO 22 0,000 mm 16,0 C 21,5 C 6,4 km/h (2 Bft) 100,00 %
20.07.2019 08:21 26,1 C 21,4 C 18,9 C 49 % 71 % 82 % 1017,0 hPa 0,0 l/m 1,6 km/h (1 Bft) N-NO 22 0,000 mm 15,9 C 21,4 C 3,2 km/h (1 Bft) 100,00 %
20.07.2019 08:20 26,0 C 21,3 C 18,9 C 49 % 71 % 82 % 1017,0 hPa 0,0 l/m 3,2 km/h (1 Bft) N-NO 22 0,000 mm 15,8 C 21,3 C 4,8 km/h (1 Bft) 100,00 %
20.07.2019 08:19 26,0 C 21,3 C 18,9 C 49 % 70 % 82 % 1016,9 hPa 0,0 l/m 1,6 km/h (1 Bft) NO 45 0,000 mm 15,6 C 21,3 C 3,2 km/h (1 Bft) 95,65 %
20.07.2019 08:18 25,9 C 21,2 C 18,9 C 49 % 70 % 82 % 1017,0 hPa 0,0 l/m 0,0 km/h (0 Bft) NO 45 0,000 mm 15,5 C 21,2 C 1,6 km/h (1 Bft) 95,65 %
20.07.2019 08:17 25,9 C 21,2 C 18,9 C 49 % 71 % 82 % 1017,0 hPa 0,0 l/m 1,6 km/h (1 Bft) N-NO 22 0,000 mm 15,7 C 21,2 C 4,8 km/h (1 Bft) 91,30 %
20.07.2019 08:16 25,9 C 21,1 C 18,9 C 49 % 71 % 82 % 1017,0 hPa 0,0 l/m 3,2 km/h (1 Bft) SO 135 0,000 mm 15,6 C 21,1 C 4,8 km/h (1 Bft) 100,00 %
20.07.2019 08:15 25,9 C 21,1 C 18,9 C 49 % 71 % 82 % 1017,0 hPa 0,0 l/m 3,2 km/h (1 Bft) O-SO 112 0,000 mm 15,6 C 21,1 C 6,4 km/h (2 Bft) 95,65 %
20.07.2019 08:14 25,9 C 21,0 C 18,9 C 49 % 72 % 82 % 1017,0 hPa 0,0 l/m 3,2 km/h (1 Bft) NO 45 0,000 mm 15,8 C 21,0 C 4,8 km/h (1 Bft) 100,00 %
20.07.2019 08:13 25,9 C 20,9 C 18,3 C 49 % 72 % 82 % 1017,0 hPa 0,0 l/m 1,6 km/h (1 Bft) O-NO 67 0,000 mm 15,7 C 20,9 C 3,2 km/h (1 Bft) 100,00 %
20.07.2019 08:12 25,8 C 20,9 C 18,3 C 49 % 72 % 82 % 1017,0 hPa 0,0 l/m 1,6 km/h (1 Bft) O-SO 112 0,000 mm 15,7 C 20,9 C 3,2 km/h (1 Bft) 100,00 %
20.07.2019 08:11 25,8 C 20,8 C 18,3 C 49 % 72 % 82 % 1017,0 hPa 0,0 l/m 1,6 km/h (1 Bft) SO 135 0,000 mm 15,6 C 20,8 C 3,2 km/h (1 Bft) 95,65 %
20.07.2019 08:10 25,8 C 20,8 C 18,3 C 49 % 71 % 82 % 1017,0 hPa 0,0 l/m 3,2 km/h (1 Bft) S-SO 157 0,000 mm 15,3 C 20,8 C 4,8 km/h (1 Bft) 100,00 %
20.07.2019 08:09 25,8 C 20,7 C 18,3 C 49 % 72 % 82 % 1017,0 hPa 0,0 l/m 3,2 km/h (1 Bft) O-SO 112 0,000 mm 15,5 C 20,7 C 3,2 km/h (1 Bft) 95,65 %
20.07.2019 08:08 25,8 C 20,7 C 18,3 C 49 % 72 % 81 % 1017,0 hPa 0,0 l/m 3,2 km/h (1 Bft) O-NO 67 0,000 mm 15,5 C 20,7 C 4,8 km/h (1 Bft) 91,30 %
20.07.2019 08:07 25,8 C 20,6 C 18,3 C 50 % 73 % 81 % 1017,0 hPa 0,0 l/m 1,6 km/h (1 Bft) O 90 0,000 mm 15,6 C 20,6 C 3,2 km/h (1 Bft) 100,00 %
20.07.2019 08:06 25,8 C 20,6 C 18,3 C 49 % 73 % 81 % 1017,0 hPa 0,0 l/m 1,6 km/h (1 Bft) O 90 0,000 mm 15,6 C 20,6 C 3,2 km/h (1 Bft) 100,00 %
20.07.2019 08:05 25,7 C 20,6 C 18,3 C 49 % 73 % 81 % 1016,9 hPa 0,0 l/m 1,6 km/h (1 Bft) NO 45 0,000 mm 15,6 C 20,6 C 9,7 km/h (2 Bft) 100,00 %
20.07.2019 08:04 25,7 C 20,4 C 18,3 C 50 % 73 % 81 % 1017,1 hPa 0,0 l/m 4,8 km/h (1 Bft) N-NO 22 0,000 mm 15,4 C 20,4 C 8,0 km/h (2 Bft) 95,65 %
20.07.2019 08:03 25,7 C 20,4 C 18,3 C 50 % 73 % 80 % 1017,0 hPa 0,0 l/m 3,2 km/h (1 Bft) N-NO 22 0,000 mm 15,4 C 20,4 C 9,7 km/h (2 Bft) 100,00 %
20.07.2019 08:02 25,7 C 20,3 C 18,3 C 50 % 73 % 80 % 1017,0 hPa 0,0 l/m 1,6 km/h (1 Bft) NO 45 0,000 mm 15,3 C 20,3 C 3,2 km/h (1 Bft) 91,30 %
20.07.2019 08:01 25,7 C 20,3 C 18,3 C 50 % 73 % 80 % 1017,0 hPa 0,0 l/m 1,6 km/h (1 Bft) O-NO 67 0,000 mm 15,3 C 20,3 C 4,8 km/h (1 Bft) 95,65 %
20.07.2019 08:00 25,7 C 20,2 C 18,3 C 50 % 73 % 80 % 1017,0 hPa 0,0 l/m 3,2 km/h (1 Bft) N-NO 22 0,000 mm 15,2 C 20,2 C 3,2 km/h (1 Bft) 95,65 %
20.07.2019 07:59 25,7 C 20,2 C 18,3 C 50 % 74 % 81 % 1017,0 hPa 0,0 l/m 3,2 km/h (1 Bft) NO 45 0,000 mm 15,4 C 20,2 C 6,4 km/h (2 Bft) 95,65 %
20.07.2019 07:58 25,7 C 20,1 C 18,3 C 50 % 74 % 81 % 1017,0 hPa 0,0 l/m 1,6 km/h (1 Bft) SO 135 0,000 mm 15,3 C 20,1 C 8,0 km/h (2 Bft) 100,00 %
20.07.2019 07:57 25,7 C 20,0 C 18,3 C 50 % 74 % 82 % 1017,0 hPa 0,0 l/m 6,4 km/h (2 Bft) O-SO 112 0,000 mm 15,2 C 20,0 C 8,0 km/h (2 Bft) 95,65 %
20.07.2019 07:56 25,7 C 19,9 C 18,3 C 50 % 74 % 82 % 1017,0 hPa 0,0 l/m 3,2 km/h (1 Bft) N-NO 22 0,000 mm 15,1 C 19,9 C 6,4 km/h (2 Bft) 100,00 %
20.07.2019 07:55 25,6 C 19,8 C 18,3 C 50 % 75 % 82 % 1017,0 hPa 0,0 l/m 0,0 km/h (0 Bft) N-NO 22 0,000 mm 15,2 C 19,8 C 3,2 km/h (1 Bft) 95,65 %
20.07.2019 07:54 25,6 C 19,7 C 18,3 C 50 % 75 % 84 % 1016,9 hPa 0,0 l/m 1,6 km/h (1 Bft) N-NO 22 0,000 mm 15,1 C 19,7 C 6,4 km/h (2 Bft) 100,00 %
20.07.2019 07:53 25,6 C 19,7 C 18,3 C 50 % 76 % 84 % 1016,9 hPa 0,0 l/m 3,2 km/h (1 Bft) O-SO 112 0,000 mm 15,3 C 19,7 C 6,4 km/h (2 Bft) 91,30 %
20.07.2019 07:52 25,6 C 19,6 C 18,3 C 50 % 75 % 84 % 1016,9 hPa 0,0 l/m 3,2 km/h (1 Bft) O 90 0,000 mm 15,0 C 19,6 C 3,2 km/h (1 Bft) 100,00 %
20.07.2019 07:51 25,6 C 19,4 C 18,3 C 50 % 75 % 83 % 1017,0 hPa 0,0 l/m 3,2 km/h (1 Bft) O 90 0,000 mm 14,8 C 19,4 C 4,8 km/h (1 Bft) 95,65 %
20.07.2019 07:50 25,6 C 19,4 C 18,3 C 50 % 77 % 83 % 1017,0 hPa 0,0 l/m 1,6 km/h (1 Bft) O-SO 112 0,000 mm 15,3 C 19,4 C 3,2 km/h (1 Bft) 91,30 %
20.07.2019 07:49 25,6 C 19,3 C 18,3 C 50 % 77 % 83 % 1016,9 hPa 0,0 l/m 1,6 km/h (1 Bft) SO 135 0,000 mm 15,2 C 19,3 C 3,2 km/h (1 Bft) 95,65 %
20.07.2019 07:48 25,6 C 19,2 C 18,3 C 50 % 77 % 83 % 1016,9 hPa 0,0 l/m 1,6 km/h (1 Bft) SO 135 0,000 mm 15,1 C 19,2 C 1,6 km/h (1 Bft) 100,00 %
20.07.2019 07:47 25,6 C 19,2 C 18,3 C 50 % 77 % 82 % 1016,9 hPa 0,0 l/m 1,6 km/h (1 Bft) SO 135 0,000 mm 15,1 C 19,2 C 3,2 km/h (1 Bft) 95,65 %
20.07.2019 07:46 25,6 C 19,1 C 18,3 C 50 % 78 % 82 % 1016,9 hPa 0,0 l/m 1,6 km/h (1 Bft) SO 135 0,000 mm 15,2 C 19,1 C 3,2 km/h (1 Bft) 95,65 %
20.07.2019 07:45 25,5 C 19,0 C 18,3 C 50 % 79 % 82 % 1016,9 hPa 0,0 l/m 1,6 km/h (1 Bft) SO 135 0,000 mm 15,3 C 19,0 C 3,2 km/h (1 Bft) 100,00 %
20.07.2019 07:44 25,6 C 18,9 C 18,3 C 50 % 79 % 81 % 1016,9 hPa 0,0 l/m 1,6 km/h (1 Bft) NO 45 0,000 mm 15,2 C 18,9 C 3,2 km/h (1 Bft) 91,30 %
20.07.2019 07:43 25,5 C 18,8 C 17,8 C 50 % 79 % 83 % 1017,0 hPa 0,0 l/m 1,6 km/h (1 Bft) NO 45 0,000 mm 15,1 C 18,8 C 4,8 km/h (1 Bft) 100,00 %
20.07.2019 07:42 25,5 C 18,8 C 17,8 C 50 % 79 % 83 % 1016,9 hPa 0,0 l/m 3,2 km/h (1 Bft) NO 45 0,000 mm 15,1 C 18,8 C 4,8 km/h (1 Bft) 91,30 %
20.07.2019 07:41 25,5 C 18,7 C 17,8 C 50 % 80 % 85 % 1016,9 hPa 0,0 l/m 1,6 km/h (1 Bft) O 90 0,000 mm 15,2 C 18,7 C 3,2 km/h (1 Bft) 95,65 %
20.07.2019 07:40 25,5 C 18,7 C 17,8 C 50 % 80 % 85 % 1016,9 hPa 0,0 l/m 0,0 km/h (0 Bft) O 90 0,000 mm 15,2 C 18,7 C 1,6 km/h (1 Bft) 95,65 %
20.07.2019 07:39 25,5 C 18,6 C 17,8 C 50 % 80 % 85 % 1016,9 hPa 0,0 l/m 0,0 km/h (0 Bft) O 90 0,000 mm 15,1 C 18,6 C 1,6 km/h (1 Bft) 100,00 %
20.07.2019 07:38 25,5 C 18,6 C 17,8 C 50 % 80 % 85 % 1016,9 hPa 0,0 l/m 0,0 km/h (0 Bft) O 90 0,000 mm 15,1 C 18,6 C 1,6 km/h (1 Bft) 91,30 %
20.07.2019 07:37 25,5 C 18,5 C 17,8 C 50 % 81 % 85 % 1016,9 hPa 0,0 l/m 1,6 km/h (1 Bft) O 90 0,000 mm 15,2 C 18,5 C 3,2 km/h (1 Bft) 95,65 %
20.07.2019 07:36 25,5 C 18,4 C 17,8 C 50 % 81 % 85 % 1016,9 hPa 0,0 l/m 0,0 km/h (0 Bft) O 90 0,000 mm 15,1 C 18,4 C 1,6 km/h (1 Bft) 91,30 %
20.07.2019 07:35 25,5 C 18,4 C 17,8 C 50 % 81 % 86 % 1016,8 hPa 0,0 l/m 0,0 km/h (0 Bft) O 90 0,000 mm 15,1 C 18,4 C 1,6 km/h (1 Bft) 91,30 %
20.07.2019 07:34 25,5 C 18,3 C 17,8 C 50 % 82 % 86 % 1017,0 hPa 0,0 l/m 1,6 km/h (1 Bft) O 90 0,000 mm 15,2 C 18,3 C 3,2 km/h (1 Bft) 86,96 %
20.07.2019 07:33 25,5 C 18,3 C 17,8 C 50 % 82 % 86 % 1016,8 hPa 0,0 l/m 1,6 km/h (1 Bft) O 90 0,000 mm 15,2 C 18,3 C 3,2 km/h (1 Bft) 95,65 %
20.07.2019 07:32 25,4 C 18,2 C 17,8 C 50 % 82 % 86 % 1016,8 hPa 0,0 l/m 1,6 km/h (1 Bft) O 90 0,000 mm 15,1 C 18,2 C 3,2 km/h (1 Bft) 86,96 %
20.07.2019 07:31 25,4 C 18,2 C 17,8 C 50 % 82 % 86 % 1016,8 hPa 0,0 l/m 1,6 km/h (1 Bft) O 90 0,000 mm 15,1 C 18,2 C 3,2 km/h (1 Bft) 100,00 %
20.07.2019 07:30 25,4 C 18,1 C 17,8 C 50 % 82 % 86 % 1016,8 hPa 0,0 l/m 1,6 km/h (1 Bft) O 90 0,000 mm 15,0 C 18,1 C 3,2 km/h (1 Bft) 86,96 %
20.07.2019 07:29 25,4 C 18,1 C 17,8 C 50 % 82 % 86 % 1016,8 hPa 0,0 l/m 1,6 km/h (1 Bft) O 90 0,000 mm 15,0 C 18,1 C 3,2 km/h (1 Bft) 95,65 %
20.07.2019 07:28 25,4 C 18,0 C 17,8 C 50 % 84 % 86 % 1016,8 hPa 0,0 l/m 0,0 km/h (0 Bft) O 90 0,000 mm 15,3 C 18,0 C 1,6 km/h (1 Bft) 91,30 %
20.07.2019 07:27 25,5 C 17,9 C 17,8 C 50 % 83 % 86 % 1016,8 hPa 0,0 l/m 1,6 km/h (1 Bft) O 90 0,000 mm 15,0 C 17,9 C 1,6 km/h (1 Bft) 91,30 %
20.07.2019 07:26 25,4 C 17,9 C 17,8 C 50 % 83 % 86 % 1016,8 hPa 0,0 l/m 1,6 km/h (1 Bft) O 90 0,000 mm 15,0 C 17,9 C 3,2 km/h (1 Bft) 100,00 %
20.07.2019 07:25 25,4 C 17,9 C 17,8 C 50 % 83 % 86 % 1016,8 hPa 0,0 l/m 0,0 km/h (0 Bft) O-SO 112 0,000 mm 15,0 C 17,9 C 1,6 km/h (1 Bft) 86,96 %
20.07.2019 07:24 25,5 C 17,8 C 17,8 C 50 % 83 % 86 % 1016,8 hPa 0,0 l/m 0,0 km/h (0 Bft) N 0 0,000 mm 14,9 C 17,8 C 0,0 km/h (0 Bft) 100,00 %
20.07.2019 07:23 25,4 C 17,8 C 17,8 C 50 % 83 % 85 % 1016,8 hPa 0,0 l/m 0,0 km/h (0 Bft) N 0 0,000 mm 14,9 C 17,8 C 0,0 km/h (0 Bft) 95,65 %
20.07.2019 07:22 25,5 C 17,7 C 17,8 C 50 % 84 % 85 % 1016,8 hPa 0,0 l/m 0,0 km/h (0 Bft) N 0 0,000 mm 15,0 C 17,7 C 0,0 km/h (0 Bft) 100,00 %
20.07.2019 07:21 25,5 C 17,7 C 17,8 C 50 % 84 % 85 % 1016,8 hPa 0,0 l/m 0,0 km/h (0 Bft) N 0 0,000 mm 15,0 C 17,7 C 0,0 km/h (0 Bft) 86,96 %
20.07.2019 07:20 25,5 C 17,7 C 17,8 C 50 % 84 % 85 % 1016,8 hPa 0,0 l/m 0,0 km/h (0 Bft) O-SO 112 0,000 mm 15,0 C 17,7 C 1,6 km/h (1 Bft) 95,65 %
20.07.2019 07:19 25,5 C 17,7 C 17,8 C 50 % 84 % 85 % 1016,9 hPa 0,0 l/m 0,0 km/h (0 Bft) N 0 0,000 mm 15,0 C 17,7 C 0,0 km/h (0 Bft) 91,30 %
20.07.2019 07:18 25,5 C 17,6 C 17,8 C 50 % 85 % 85 % 1016,8 hPa 0,0 l/m 0,0 km/h (0 Bft) N 0 0,000 mm 15,0 C 17,6 C 0,0 km/h (0 Bft) 95,65 %
20.07.2019 07:17 25,5 C 17,6 C 17,8 C 50 % 85 % 85 % 1016,8 hPa 0,0 l/m 0,0 km/h (0 Bft) O-SO 112 0,000 mm 15,0 C 17,6 C 1,6 km/h (1 Bft) 95,65 %
20.07.2019 07:16 25,5 C 17,6 C 17,8 C 50 % 85 % 85 % 1016,8 hPa 0,0 l/m 0,0 km/h (0 Bft) O-SO 112 0,000 mm 15,0 C 17,6 C 1,6 km/h (1 Bft) 91,30 %
20.07.2019 07:15 25,5 C 17,5 C 17,8 C 49 % 85 % 85 % 1016,8 hPa 0,0 l/m 0,0 km/h (0 Bft) O-SO 112 0,000 mm 14,9 C 17,5 C 1,6 km/h (1 Bft) 95,65 %
20.07.2019 07:14 25,5 C 17,5 C 17,8 C 49 % 85 % 85 % 1016,8 hPa 0,0 l/m 0,0 km/h (0 Bft) O-SO 112 0,000 mm 14,9 C 17,5 C 1,6 km/h (1 Bft) 86,96 %
20.07.2019 07:13 25,5 C 17,4 C 17,8 C 49 % 85 % 85 % 1016,7 hPa 0,0 l/m 0,0 km/h (0 Bft) N 0 0,000 mm 14,8 C 17,4 C 0,0 km/h (0 Bft) 100,00 %
20.07.2019 07:12 25,5 C 17,4 C 17,8 C 49 % 85 % 85 % 1016,7 hPa 0,0 l/m 0,0 km/h (0 Bft) N 0 0,000 mm 14,8 C 17,4 C 0,0 km/h (0 Bft) 91,30 %
20.07.2019 07:11 25,5 C 17,4 C 17,8 C 49 % 85 % 85 % 1016,7 hPa 0,0 l/m 0,0 km/h (0 Bft) N 0 0,000 mm 14,8 C 17,4 C 0,0 km/h (0 Bft) 95,65 %
20.07.2019 07:10 25,5 C 17,3 C 17,8 C 49 % 85 % 85 % 1016,8 hPa 0,0 l/m 0,0 km/h (0 Bft) N 0 0,000 mm 14,8 C 17,3 C 0,0 km/h (0 Bft) 91,30 %
20.07.2019 07:09 25,5 C 17,3 C 17,8 C 49 % 86 % 85 % 1016,7 hPa 0,0 l/m 0,0 km/h (0 Bft) O-SO 112 0,000 mm 14,9 C 17,3 C 1,6 km/h (1 Bft) 95,65 %
20.07.2019 07:08 25,5 C 17,3 C 17,8 C 49 % 85 % 85 % 1016,8 hPa 0,0 l/m 0,0 km/h (0 Bft) O-SO 112 0,000 mm 14,8 C 17,3 C 1,6 km/h (1 Bft) 91,30 %
20.07.2019 07:07 25,5 C 17,3 C 17,8 C 49 % 85 % 85 % 1016,7 hPa 0,0 l/m 0,0 km/h (0 Bft) O-SO 112 0,000 mm 14,8 C 17,3 C 1,6 km/h (1 Bft) 95,65 %
20.07.2019 07:06 25,5 C 17,3 C 17,8 C 49 % 85 % 85 % 1016,8 hPa 0,0 l/m 0,0 km/h (0 Bft) N 0 0,000 mm 14,8 C 17,3 C 0,0 km/h (0 Bft) 91,30 %
20.07.2019 07:05 25,5 C 17,3 C 17,8 C 49 % 85 % 85 % 1016,8 hPa 0,0 l/m 0,0 km/h (0 Bft) N 0 0,000 mm 14,8 C 17,3 C 0,0 km/h (0 Bft) 100,00 %
20.07.2019 07:04 25,5 C 17,2 C 17,8 C 49 % 85 % 85 % 1016,8 hPa 0,0 l/m 0,0 km/h (0 Bft) N 0 0,000 mm 14,7 C 17,2 C 0,0 km/h (0 Bft) 95,65 %
20.07.2019 07:03 25,6 C 17,2 C 17,2 C 49 % 85 % 85 % 1016,7 hPa 0,0 l/m 0,0 km/h (0 Bft) N 0 0,000 mm 14,7 C 17,2 C 0,0 km/h (0 Bft) 100,00 %
20.07.2019 07:02 25,5 C 17,2 C 17,8 C 49 % 86 % 85 % 1016,7 hPa 0,0 l/m 0,0 km/h (0 Bft) N 0 0,000 mm 14,8 C 17,2 C 0,0 km/h (0 Bft) 91,30 %
20.07.2019 07:01 25,5 C 17,2 C 17,2 C 49 % 86 % 85 % 1016,7 hPa 0,0 l/m 0,0 km/h (0 Bft) N 0 0,000 mm 14,8 C 17,2 C 0,0 km/h (0 Bft) 95,65 %
20.07.2019 07:00 25,5 C 17,1 C 17,2 C 49 % 86 % 85 % 1016,8 hPa 0,0 l/m 0,0 km/h (0 Bft) N 0 0,000 mm 14,7 C 17,1 C 0,0 km/h (0 Bft) 91,30 %
20.07.2019 06:59 25,5 C 17,1 C 17,2 C 49 % 86 % 85 % 1016,7 hPa 0,0 l/m 0,0 km/h (0 Bft) O-SO 112 0,000 mm 14,7 C 17,1 C 1,6 km/h (1 Bft) 100,00 %
20.07.2019 06:58 25,5 C 17,1 C 17,2 C 49 % 86 % 85 % 1016,7 hPa 0,0 l/m 0,0 km/h (0 Bft) N 0 0,000 mm 14,7 C 17,1 C 0,0 km/h (0 Bft) 95,65 %
20.07.2019 06:57 25,5 C 17,1 C 17,2 C 49 % 86 % 85 % 1016,7 hPa 0,0 l/m 0,0 km/h (0 Bft) N 0 0,000 mm 14,7 C 17,1 C 0,0 km/h (0 Bft) 95,65 %
20.07.2019 06:56 25,5 C 17,0 C 17,2 C 49 % 86 % 85 % 1016,7 hPa 0,0 l/m 0,0 km/h (0 Bft) O-SO 112 0,000 mm 14,6 C 17,0 C 1,6 km/h (1 Bft) 100,00 %
20.07.2019 06:55 25,5 C 17,0 C 17,2 C 49 % 86 % 85 % 1016,7 hPa 0,0 l/m 0,0 km/h (0 Bft) N 0 0,000 mm 14,6 C 17,0 C 0,0 km/h (0 Bft) 95,65 %
20.07.2019 06:54 25,5 C 17,1 C 17,2 C 49 % 86 % 85 % 1016,7 hPa 0,0 l/m 0,0 km/h (0 Bft) N 0 0,000 mm 14,7 C 17,1 C 0,0 km/h (0 Bft) 100,00 %
20.07.2019 06:53 25,5 C 17,0 C 17,2 C 49 % 86 % 85 % 1016,7 hPa 0,0 l/m 0,0 km/h (0 Bft) N 0 0,000 mm 14,6 C 17,0 C 0,0 km/h (0 Bft) 91,30 %
20.07.2019 06:52 25,5 C 17,0 C 17,2 C 49 % 86 % 85 % 1016,7 hPa 0,0 l/m 0,0 km/h (0 Bft) N 0 0,000 mm 14,6 C 17,0 C 0,0 km/h (0 Bft) 100,00 %
20.07.2019 06:51 25,5 C 16,9 C 17,2 C 49 % 86 % 85 % 1016,6 hPa 0,0 l/m 0,0 km/h (0 Bft) N 0 0,000 mm 14,5 C 16,9 C 0,0 km/h (0 Bft) 91,30 %
20.07.2019 06:50 25,5 C 16,9 C 17,2 C 49 % 86 % 85 % 1016,6 hPa 0,0 l/m 0,0 km/h (0 Bft) N 0 0,000 mm 14,5 C 16,9 C 0,0 km/h (0 Bft) 100,00 %
20.07.2019 06:49 25,6 C 16,9 C 17,2 C 49 % 86 % 85 % 1016,8 hPa 0,0 l/m 0,0 km/h (0 Bft) N 0 0,000 mm 14,5 C 16,9 C 0,0 km/h (0 Bft) 95,65 %
20.07.2019 06:48 25,5 C 16,9 C 17,2 C 49 % 86 % 85 % 1016,7 hPa 0,0 l/m 0,0 km/h (0 Bft) O-SO 112 0,000 mm 14,5 C 16,9 C 1,6 km/h (1 Bft) 100,00 %
20.07.2019 06:47 25,6 C 16,9 C 17,2 C 49 % 86 % 85 % 1016,7 hPa 0,0 l/m 0,0 km/h (0 Bft) O-SO 112 0,000 mm 14,5 C 16,9 C 1,6 km/h (1 Bft) 95,65 %
20.07.2019 06:46 25,6 C 16,8 C 17,2 C 49 % 86 % 85 % 1016,7 hPa 0,0 l/m 0,0 km/h (0 Bft) O-SO 112 0,000 mm 14,4 C 16,8 C 1,6 km/h (1 Bft) 91,30 %
20.07.2019 06:45 25,5 C 16,8 C 17,2 C 49 % 86 % 85 % 1016,7 hPa 0,0 l/m 0,0 km/h (0 Bft) N 0 0,000 mm 14,4 C 16,8 C 0,0 km/h (0 Bft) 95,65 %
20.07.2019 06:44 25,5 C 16,8 C 17,2 C 49 % 86 % 85 % 1016,6 hPa 0,0 l/m 0,0 km/h (0 Bft) O-SO 112 0,000 mm 14,4 C 16,8 C 1,6 km/h (1 Bft) 100,00 %
20.07.2019 06:43 25,5 C 16,8 C 17,2 C 49 % 86 % 85 % 1016,8 hPa 0,0 l/m 0,0 km/h (0 Bft) N 0 0,000 mm 14,4 C 16,8 C 0,0 km/h (0 Bft) 86,96 %
20.07.2019 06:42 25,5 C 16,8 C 17,2 C 49 % 87 % 85 % 1016,6 hPa 0,0 l/m 0,0 km/h (0 Bft) N 0 0,000 mm 14,6 C 16,8 C 0,0 km/h (0 Bft) 95,65 %
20.07.2019 06:41 25,6 C 16,8 C 17,2 C 49 % 87 % 85 % 1016,7 hPa 0,0 l/m 0,0 km/h (0 Bft) O-SO 112 0,000 mm 14,6 C 16,8 C 1,6 km/h (1 Bft) 100,00 %
20.07.2019 06:40 25,5 C 16,8 C 17,2 C 49 % 87 % 85 % 1016,6 hPa 0,0 l/m 1,6 km/h (1 Bft) O-SO 112 0,000 mm 14,6 C 16,8 C 1,6 km/h (1 Bft) 95,65 %
20.07.2019 06:39 25,5 C 16,8 C 17,2 C 49 % 87 % 85 % 1016,7 hPa 0,0 l/m 1,6 km/h (1 Bft) O-SO 112 0,000 mm 14,6 C 16,8 C 3,2 km/h (1 Bft) 95,65 %
20.07.2019 06:38 25,5 C 16,8 C 17,2 C 49 % 87 % 85 % 1016,7 hPa 0,0 l/m 1,6 km/h (1 Bft) O-SO 112 0,000 mm 14,6 C 16,8 C 1,6 km/h (1 Bft) 95,65 %
20.07.2019 06:37 25,6 C 16,7 C 17,2 C 49 % 87 % 85 % 1016,7 hPa 0,0 l/m 1,6 km/h (1 Bft) O-SO 112 0,000 mm 14,5 C 16,7 C 3,2 km/h (1 Bft) 100,00 %
20.07.2019 06:36 25,5 C 16,7 C 17,2 C 49 % 87 % 85 % 1016,7 hPa 0,0 l/m 1,6 km/h (1 Bft) O-SO 112 0,000 mm 14,5 C 16,7 C 1,6 km/h (1 Bft) 95,65 %
20.07.2019 06:35 25,5 C 16,7 C 17,2 C 49 % 87 % 85 % 1016,7 hPa 0,0 l/m 0,0 km/h (0 Bft) O-SO 112 0,000 mm 14,5 C 16,7 C 1,6 km/h (1 Bft) 100,00 %
20.07.2019 06:34 25,5 C 16,7 C 17,2 C 49 % 87 % 85 % 1016,7 hPa 0,0 l/m 0,0 km/h (0 Bft) N 0 0,000 mm 14,5 C 16,7 C 0,0 km/h (0 Bft) 95,65 %
20.07.2019 06:33 25,5 C 16,7 C 17,2 C 49 % 87 % 85 % 1016,6 hPa 0,0 l/m 0,0 km/h (0 Bft) N 0 0,000 mm 14,5 C 16,7 C 0,0 km/h (0 Bft) 100,00 %
20.07.2019 06:32 25,5 C 16,7 C 17,2 C 49 % 87 % 85 % 1016,7 hPa 0,0 l/m 0,0 km/h (0 Bft) N 0 0,000 mm 14,5 C 16,7 C 0,0 km/h (0 Bft) 91,30 %
20.07.2019 06:31 25,5 C 16,7 C 17,2 C 49 % 87 % 85 % 1016,6 hPa 0,0 l/m 0,0 km/h (0 Bft) O-SO 112 0,000 mm 14,5 C 16,7 C 1,6 km/h (1 Bft) 100,00 %
20.07.2019 06:30 25,5 C 16,7 C 17,2 C 49 % 87 % 85 % 1016,6 hPa 0,0 l/m 1,6 km/h (1 Bft) O-SO 112 0,000 mm 14,5 C 16,7 C 1,6 km/h (1 Bft) 100,00 %
20.07.2019 06:29 25,5 C 16,7 C 17,2 C 48 % 87 % 85 % 1016,6 hPa 0,0 l/m 1,6 km/h (1 Bft) O-SO 112 0,000 mm 14,5 C 16,7 C 3,2 km/h (1 Bft) 95,65 %
20.07.2019 06:28 25,5 C 16,6 C 17,2 C 49 % 87 % 85 % 1016,7 hPa 0,0 l/m 1,6 km/h (1 Bft) O-SO 112 0,000 mm 14,4 C 16,6 C 3,2 km/h (1 Bft) 100,00 %
20.07.2019 06:27 25,5 C 16,6 C 17,2 C 48 % 87 % 84 % 1016,6 hPa 0,0 l/m 1,6 km/h (1 Bft) O-SO 112 0,000 mm 14,4 C 16,6 C 3,2 km/h (1 Bft) 95,65 %
20.07.2019 06:26 25,5 C 16,6 C 17,2 C 48 % 87 % 84 % 1016,6 hPa 0,0 l/m 1,6 km/h (1 Bft) O-SO 112 0,000 mm 14,4 C 16,6 C 3,2 km/h (1 Bft) 100,00 %
20.07.2019 06:25 25,5 C 16,6 C 17,2 C 48 % 87 % 84 % 1016,7 hPa 0,0 l/m 1,6 km/h (1 Bft) O-SO 112 0,000 mm 14,4 C 16,6 C 1,6 km/h (1 Bft) 91,30 %
20.07.2019 06:24 25,5 C 16,6 C 17,2 C 49 % 87 % 84 % 1016,6 hPa 0,0 l/m 1,6 km/h (1 Bft) O-SO 112 0,000 mm 14,4 C 16,6 C 3,2 km/h (1 Bft) 100,00 %
20.07.2019 06:23 25,5 C 16,6 C 17,2 C 49 % 88 % 84 % 1016,5 hPa 0,0 l/m 1,6 km/h (1 Bft) O-SO 112 0,000 mm 14,6 C 16,6 C 3,2 km/h (1 Bft) 100,00 %
20.07.2019 06:22 25,5 C 16,6 C 17,2 C 49 % 88 % 84 % 1016,6 hPa 0,0 l/m 1,6 km/h (1 Bft) O-SO 112 0,000 mm 14,6 C 16,6 C 3,2 km/h (1 Bft) 95,65 %
20.07.2019 06:21 25,5 C 16,6 C 17,2 C 48 % 88 % 84 % 1016,6 hPa 0,0 l/m 3,2 km/h (1 Bft) O-SO 112 0,000 mm 14,6 C 16,6 C 3,2 km/h (1 Bft) 100,00 %
20.07.2019 06:20 25,5 C 16,6 C 17,2 C 48 % 88 % 84 % 1016,6 hPa 0,0 l/m 1,6 km/h (1 Bft) O-SO 112 0,000 mm 14,6 C 16,6 C 3,2 km/h (1 Bft) 95,65 %
20.07.2019 06:19 25,5 C 16,5 C 17,2 C 48 % 88 % 84 % 1016,6 hPa 0,0 l/m 1,6 km/h (1 Bft) O-SO 112 0,000 mm 14,5 C 16,5 C 3,2 km/h (1 Bft) 95,65 %
20.07.2019 06:18 25,5 C 16,5 C 17,2 C 48 % 88 % 85 % 1016,6 hPa 0,0 l/m 1,6 km/h (1 Bft) S-SO 157 0,000 mm 14,5 C 16,5 C 3,2 km/h (1 Bft) 95,65 %
20.07.2019 06:17 25,5 C 16,5 C 17,2 C 48 % 88 % 85 % 1016,6 hPa 0,0 l/m 1,6 km/h (1 Bft) S-SO 157 0,000 mm 14,5 C 16,5 C 3,2 km/h (1 Bft) 100,00 %
20.07.2019 06:16 25,5 C 16,4 C 17,2 C 48 % 88 % 85 % 1016,6 hPa 0,0 l/m 1,6 km/h (1 Bft) S-SO 157 0,000 mm 14,4 C 16,4 C 1,6 km/h (1 Bft) 100,00 %
20.07.2019 06:15 25,5 C 16,4 C 17,2 C 48 % 88 % 85 % 1016,6 hPa 0,0 l/m 1,6 km/h (1 Bft) S-SO 157 0,000 mm 14,4 C 16,4 C 1,6 km/h (1 Bft) 100,00 %
20.07.2019 06:14 25,5 C 16,4 C 17,2 C 48 % 88 % 85 % 1016,6 hPa 0,0 l/m 1,6 km/h (1 Bft) S-SO 157 0,000 mm 14,4 C 16,4 C 1,6 km/h (1 Bft) 100,00 %
20.07.2019 06:13 25,5 C 16,4 C 17,2 C 48 % 88 % 85 % 1016,6 hPa 0,0 l/m 1,6 km/h (1 Bft) S-SO 157 0,000 mm 14,4 C 16,4 C 1,6 km/h (1 Bft) 100,00 %
20.07.2019 06:12 25,5 C 16,4 C 17,2 C 48 % 88 % 85 % 1016,6 hPa 0,0 l/m 1,6 km/h (1 Bft) S-SO 157 0,000 mm 14,4 C 16,4 C 1,6 km/h (1 Bft) 95,65 %
20.07.2019 06:11 25,5 C 16,4 C 17,2 C 48 % 88 % 85 % 1016,6 hPa 0,0 l/m 1,6 km/h (1 Bft) S-SO 157 0,000 mm 14,4 C 16,4 C 1,6 km/h (1 Bft) 95,65 %
20.07.2019 06:10 25,5 C 16,3 C 17,2 C 48 % 88 % 85 % 1016,5 hPa 0,0 l/m 1,6 km/h (1 Bft) S-SO 157 0,000 mm 14,3 C 16,3 C 1,6 km/h (1 Bft) 100,00 %
20.07.2019 06:09 25,5 C 16,3 C 17,2 C 48 % 88 % 85 % 1016,6 hPa 0,0 l/m 1,6 km/h (1 Bft) S-SO 157 0,000 mm 14,3 C 16,3 C 1,6 km/h (1 Bft) 100,00 %
20.07.2019 06:08 25,5 C 16,3 C 17,2 C 48 % 88 % 85 % 1016,6 hPa 0,0 l/m 0,0 km/h (0 Bft) S-SO 157 0,000 mm 14,3 C 16,3 C 1,6 km/h (1 Bft) 100,00 %
20.07.2019 06:07 25,5 C 16,3 C 17,2 C 48 % 88 % 85 % 1016,6 hPa 0,0 l/m 0,0 km/h (0 Bft) S-SO 157 0,000 mm 14,3 C 16,3 C 1,6 km/h (1 Bft) 100,00 %
20.07.2019 06:06 25,5 C 16,3 C 17,2 C 48 % 88 % 84 % 1016,6 hPa 0,0 l/m 0,0 km/h (0 Bft) N 0 0,000 mm 14,3 C 16,3 C 0,0 km/h (0 Bft) 95,65 %
20.07.2019 06:05 25,5 C 16,3 C 17,2 C 48 % 88 % 84 % 1016,6 hPa 0,0 l/m 0,0 km/h (0 Bft) S-SO 157 0,000 mm 14,3 C 16,3 C 1,6 km/h (1 Bft) 100,00 %
20.07.2019 06:04 25,5 C 16,2 C 17,2 C 48 % 88 % 85 % 1016,6 hPa 0,0 l/m 0,0 km/h (0 Bft) N 0 0,000 mm 14,2 C 16,2 C 0,0 km/h (0 Bft) 95,65 %
20.07.2019 06:03 25,5 C 16,2 C 17,2 C 48 % 88 % 85 % 1016,6 hPa 0,0 l/m 0,0 km/h (0 Bft) N 0 0,000 mm 14,2 C 16,2 C 0,0 km/h (0 Bft) 100,00 %
20.07.2019 06:02 25,5 C 16,2 C 17,2 C 48 % 88 % 84 % 1016,6 hPa 0,0 l/m 0,0 km/h (0 Bft) S-SO 157 0,000 mm 14,2 C 16,2 C 1,6 km/h (1 Bft) 100,00 %
20.07.2019 06:01 25,5 C 16,1 C 17,2 C 48 % 88 % 84 % 1016,6 hPa 0,0 l/m 0,0 km/h (0 Bft) S-SO 157 0,000 mm 14,1 C 16,1 C 3,2 km/h (1 Bft) 100,00 %
20.07.2019 06:00 25,5 C 16,1 C 17,2 C 48 % 89 % 84 % 1016,6 hPa 0,0 l/m 1,6 km/h (1 Bft) S-SO 157 0,000 mm 14,3 C 16,1 C 1,6 km/h (1 Bft) 100,00 %
20.07.2019 05:59 25,5 C 16,1 C 17,2 C 48 % 89 % 84 % 1016,6 hPa 0,0 l/m 1,6 km/h (1 Bft) S-SO 157 0,000 mm 14,3 C 16,1 C 3,2 km/h (1 Bft) 100,00 %
20.07.2019 05:58 25,5 C 16,1 C 17,2 C 48 % 89 % 84 % 1016,6 hPa 0,0 l/m 1,6 km/h (1 Bft) S-SO 157 0,000 mm 14,3 C 16,1 C 3,2 km/h (1 Bft) 100,00 %
20.07.2019 05:57 25,5 C 16,1 C 17,2 C 48 % 89 % 84 % 1016,6 hPa 0,0 l/m 1,6 km/h (1 Bft) S-SO 157 0,000 mm 14,3 C 16,1 C 3,2 km/h (1 Bft) 86,96 %
20.07.2019 05:56 25,6 C 16,0 C 17,2 C 48 % 89 % 84 % 1016,6 hPa 0,0 l/m 0,0 km/h (0 Bft) S-SO 157 0,000 mm 14,2 C 16,0 C 1,6 km/h (1 Bft) 95,65 %
20.07.2019 05:55 25,5 C 16,0 C 17,2 C 48 % 89 % 84 % 1016,5 hPa 0,0 l/m 1,6 km/h (1 Bft) S-SO 157 0,000 mm 14,2 C 16,0 C 3,2 km/h (1 Bft) 95,65 %
20.07.2019 05:54 25,6 C 15,9 C 17,2 C 48 % 89 % 84 % 1016,6 hPa 0,0 l/m 3,2 km/h (1 Bft) S-SO 157 0,000 mm 14,1 C 15,9 C 3,2 km/h (1 Bft) 100,00 %
20.07.2019 05:53 25,5 C 15,9 C 17,2 C 48 % 90 % 84 % 1016,6 hPa 0,0 l/m 1,6 km/h (1 Bft) S-SO 157 0,000 mm 14,3 C 15,9 C 3,2 km/h (1 Bft) 91,30 %
20.07.2019 05:52 25,5 C 15,9 C 17,2 C 48 % 90 % 84 % 1016,5 hPa 0,0 l/m 1,6 km/h (1 Bft) S-SO 157 0,000 mm 14,3 C 15,9 C 3,2 km/h (1 Bft) 100,00 %
20.07.2019 05:51 25,5 C 15,9 C 17,2 C 48 % 90 % 84 % 1016,5 hPa 0,0 l/m 1,6 km/h (1 Bft) S-SO 157 0,000 mm 14,3 C 15,9 C 3,2 km/h (1 Bft) 91,30 %
20.07.2019 05:50 25,6 C 15,8 C 17,2 C 48 % 90 % 84 % 1016,6 hPa 0,0 l/m 1,6 km/h (1 Bft) S-SO 157 0,000 mm 14,2 C 15,8 C 1,6 km/h (1 Bft) 91,30 %
20.07.2019 05:49 25,6 C 15,8 C 17,2 C 48 % 90 % 84 % 1016,5 hPa 0,0 l/m 1,6 km/h (1 Bft) S-SO 157 0,000 mm 14,2 C 15,8 C 3,2 km/h (1 Bft) 100,00 %
20.07.2019 05:48 25,5 C 15,8 C 17,2 C 48 % 90 % 84 % 1016,6 hPa 0,0 l/m 1,6 km/h (1 Bft) S-SO 157 0,000 mm 14,2 C 15,8 C 3,2 km/h (1 Bft) 95,65 %
20.07.2019 05:47 25,5 C 15,8 C 17,2 C 48 % 90 % 84 % 1016,6 hPa 0,0 l/m 0,0 km/h (0 Bft) NO 45 0,000 mm 14,2 C 15,8 C 1,6 km/h (1 Bft) 95,65 %
20.07.2019 05:46 25,6 C 15,8 C 17,2 C 48 % 90 % 84 % 1016,6 hPa 0,0 l/m 1,6 km/h (1 Bft) NO 45 0,000 mm 14,2 C 15,8 C 1,6 km/h (1 Bft) 95,65 %
20.07.2019 05:45 25,5 C 15,8 C 17,2 C 48 % 89 % 84 % 1016,6 hPa 0,0 l/m 0,0 km/h (0 Bft) NO 45 0,000 mm 14,0 C 15,8 C 1,6 km/h (1 Bft) 100,00 %
20.07.2019 05:44 25,5 C 15,8 C 17,2 C 48 % 90 % 84 % 1016,6 hPa 0,0 l/m 0,0 km/h (0 Bft) NO 45 0,000 mm 14,2 C 15,8 C 1,6 km/h (1 Bft) 95,65 %
20.07.2019 05:43 25,6 C 15,8 C 17,2 C 48 % 89 % 84 % 1016,5 hPa 0,0 l/m 1,6 km/h (1 Bft) NO 45 0,000 mm 14,0 C 15,8 C 1,6 km/h (1 Bft) 95,65 %
20.07.2019 05:42 25,5 C 15,8 C 17,2 C 48 % 89 % 84 % 1016,6 hPa 0,0 l/m 1,6 km/h (1 Bft) NO 45 0,000 mm 14,0 C 15,8 C 1,6 km/h (1 Bft) 95,65 %
20.07.2019 05:41 25,6 C 15,8 C 17,2 C 48 % 89 % 84 % 1016,5 hPa 0,0 l/m 1,6 km/h (1 Bft) NO 45 0,000 mm 14,0 C 15,8 C 1,6 km/h (1 Bft) 95,65 %
20.07.2019 05:40 25,5 C 15,8 C 17,2 C 48 % 89 % 84 % 1016,6 hPa 0,0 l/m 1,6 km/h (1 Bft) NO 45 0,000 mm 14,0 C 15,8 C 3,2 km/h (1 Bft) 100,00 %
20.07.2019 05:39 25,6 C 15,8 C 17,2 C 48 % 89 % 84 % 1016,5 hPa 0,0 l/m 0,0 km/h (0 Bft) N 0 0,000 mm 14,0 C 15,8 C 0,0 km/h (0 Bft) 95,65 %
20.07.2019 05:38 25,6 C 15,8 C 17,2 C 48 % 89 % 84 % 1016,5 hPa 0,0 l/m 0,0 km/h (0 Bft) N 0 0,000 mm 14,0 C 15,8 C 0,0 km/h (0 Bft) 100,00 %
20.07.2019 05:37 25,6 C 15,8 C 17,2 C 48 % 89 % 84 % 1016,6 hPa 0,0 l/m 0,0 km/h (0 Bft) N 0 0,000 mm 14,0 C 15,8 C 0,0 km/h (0 Bft) 95,65 %
20.07.2019 05:36 25,6 C 15,8 C 17,2 C 48 % 89 % 84 % 1016,6 hPa 0,0 l/m 0,0 km/h (0 Bft) N 0 0,000 mm 14,0 C 15,8 C 0,0 km/h (0 Bft) 91,30 %
20.07.2019 05:35 25,6 C 15,8 C 17,2 C 48 % 89 % 84 % 1016,6 hPa 0,0 l/m 0,0 km/h (0 Bft) N 0 0,000 mm 14,0 C 15,8 C 0,0 km/h (0 Bft) 95,65 %
20.07.2019 05:34 25,6 C 15,8 C 17,2 C 48 % 89 % 84 % 1016,6 hPa 0,0 l/m 0,0 km/h (0 Bft) N 0 0,000 mm 14,0 C 15,8 C 0,0 km/h (0 Bft) 100,00 %
20.07.2019 05:33 25,6 C 15,8 C 17,2 C 48 % 89 % 83 % 1016,5 hPa 0,0 l/m 0,0 km/h (0 Bft) N 0 0,000 mm 14,0 C 15,8 C 0,0 km/h (0 Bft) 91,30 %
20.07.2019 05:32 25,6 C 15,8 C 17,2 C 48 % 89 % 83 % 1016,5 hPa 0,0 l/m 0,0 km/h (0 Bft) N 0 0,000 mm 14,0 C 15,8 C 0,0 km/h (0 Bft) 95,65 %
20.07.2019 05:31 25,6 C 15,8 C 17,2 C 48 % 89 % 83 % 1016,6 hPa 0,0 l/m 0,0 km/h (0 Bft) N 0 0,000 mm 14,0 C 15,8 C 0,0 km/h (0 Bft) 100,00 %
20.07.2019 05:30 25,6 C 15,8 C 17,2 C 48 % 89 % 83 % 1016,6 hPa 0,0 l/m 0,0 km/h (0 Bft) N 0 0,000 mm 14,0 C 15,8 C 0,0 km/h (0 Bft) 95,65 %
20.07.2019 05:29 25,6 C 15,8 C 17,2 C 48 % 89 % 83 % 1016,5 hPa 0,0 l/m 0,0 km/h (0 Bft) N 0 0,000 mm 14,0 C 15,8 C 0,0 km/h (0 Bft) 95,65 %
20.07.2019 05:28 25,6 C 15,8 C 17,2 C 48 % 89 % 83 % 1016,5 hPa 0,0 l/m 0,0 km/h (0 Bft) N 0 0,000 mm 14,0 C 15,8 C 0,0 km/h (0 Bft) 100,00 %
20.07.2019 05:27 25,6 C 15,8 C 17,2 C 48 % 89 % 83 % 1016,6 hPa 0,0 l/m 0,0 km/h (0 Bft) N 0 0,000 mm 14,0 C 15,8 C 0,0 km/h (0 Bft) 95,65 %
20.07.2019 05:26 25,6 C 15,8 C 17,2 C 48 % 88 % 83 % 1016,5 hPa 0,0 l/m 0,0 km/h (0 Bft) N 0 0,000 mm 13,8 C 15,8 C 0,0 km/h (0 Bft) 100,00 %
20.07.2019 05:25 25,6 C 15,8 C 17,2 C 48 % 88 % 83 % 1016,5 hPa 0,0 l/m 0,0 km/h (0 Bft) N 0 0,000 mm 13,8 C 15,8 C 0,0 km/h (0 Bft) 100,00 %
20.07.2019 05:24 25,6 C 15,8 C 17,2 C 48 % 88 % 83 % 1016,5 hPa 0,0 l/m 0,0 km/h (0 Bft) N 0 0,000 mm 13,8 C 15,8 C 0,0 km/h (0 Bft) 95,65 %
20.07.2019 05:23 25,6 C 15,8 C 17,2 C 48 % 88 % 82 % 1016,5 hPa 0,0 l/m 0,0 km/h (0 Bft) NO 45 0,000 mm 13,8 C 15,8 C 1,6 km/h (1 Bft) 95,65 %
20.07.2019 05:22 25,6 C 15,8 C 17,2 C 48 % 88 % 82 % 1016,5 hPa 0,0 l/m 0,0 km/h (0 Bft) NO 45 0,000 mm 13,8 C 15,8 C 1,6 km/h (1 Bft) 95,65 %
20.07.2019 05:21 25,6 C 15,8 C 17,2 C 48 % 88 % 82 % 1016,5 hPa 0,0 l/m 0,0 km/h (0 Bft) N 0 0,000 mm 13,8 C 15,8 C 0,0 km/h (0 Bft) 100,00 %
20.07.2019 05:20 25,6 C 15,8 C 17,2 C 48 % 88 % 82 % 1016,5 hPa 0,0 l/m 0,0 km/h (0 Bft) N 0 0,000 mm 13,8 C 15,8 C 0,0 km/h (0 Bft) 100,00 %
20.07.2019 05:19 25,6 C 15,9 C 17,2 C 48 % 87 % 82 % 1016,5 hPa 0,0 l/m 0,0 km/h (0 Bft) N 0 0,000 mm 13,7 C 15,9 C 0,0 km/h (0 Bft) 100,00 %
20.07.2019 05:18 25,6 C 15,8 C 17,2 C 48 % 87 % 82 % 1016,5 hPa 0,0 l/m 0,0 km/h (0 Bft) N 0 0,000 mm 13,6 C 15,8 C 0,0 km/h (0 Bft) 100,00 %
20.07.2019 05:17 25,6 C 15,9 C 17,2 C 48 % 87 % 82 % 1016,5 hPa 0,0 l/m 0,0 km/h (0 Bft) N 0 0,000 mm 13,7 C 15,9 C 0,0 km/h (0 Bft) 100,00 %
20.07.2019 05:16 25,6 C 15,9 C 17,2 C 48 % 87 % 82 % 1016,5 hPa 0,0 l/m 0,0 km/h (0 Bft) N 0 0,000 mm 13,7 C 15,9 C 0,0 km/h (0 Bft) 100,00 %
20.07.2019 05:15 25,6 C 15,9 C 17,2 C 48 % 87 % 82 % 1016,5 hPa 0,0 l/m 0,0 km/h (0 Bft) N 0 0,000 mm 13,7 C 15,9 C 0,0 km/h (0 Bft) 100,00 %
20.07.2019 05:14 25,6 C 15,9 C 17,2 C 48 % 87 % 82 % 1016,5 hPa 0,0 l/m 0,0 km/h (0 Bft) N 0 0,000 mm 13,7 C 15,9 C 0,0 km/h (0 Bft) 95,65 %
20.07.2019 05:13 25,6 C 15,9 C 17,2 C 48 % 87 % 82 % 1016,6 hPa 0,0 l/m 0,0 km/h (0 Bft) N 0 0,000 mm 13,7 C 15,9 C 0,0 km/h (0 Bft) 100,00 %
20.07.2019 05:12 25,6 C 15,9 C 17,2 C 48 % 88 % 82 % 1016,4 hPa 0,0 l/m 0,0 km/h (0 Bft) N 0 0,000 mm 13,9 C 15,9 C 0,0 km/h (0 Bft) 100,00 %
20.07.2019 05:11 25,6 C 15,9 C 17,2 C 48 % 87 % 82 % 1016,5 hPa 0,0 l/m 0,0 km/h (0 Bft) NO 45 0,000 mm 13,7 C 15,9 C 1,6 km/h (1 Bft) 100,00 %
20.07.2019 05:10 25,6 C 15,9 C 17,2 C 48 % 88 % 82 % 1016,4 hPa 0,0 l/m 0,0 km/h (0 Bft) N 0 0,000 mm 13,9 C 15,9 C 0,0 km/h (0 Bft) 100,00 %
20.07.2019 05:09 25,6 C 15,9 C 17,2 C 48 % 88 % 82 % 1016,5 hPa 0,0 l/m 0,0 km/h (0 Bft) N 0 0,000 mm 13,9 C 15,9 C 0,0 km/h (0 Bft) 100,00 %
20.07.2019 05:08 25,6 C 15,9 C 17,2 C 48 % 88 % 82 % 1016,5 hPa 0,0 l/m 0,0 km/h (0 Bft) N 0 0,000 mm 13,9 C 15,9 C 0,0 km/h (0 Bft) 100,00 %
20.07.2019 05:07 25,6 C 15,9 C 17,2 C 48 % 88 % 82 % 1016,5 hPa 0,0 l/m 0,0 km/h (0 Bft) N 0 0,000 mm 13,9 C 15,9 C 0,0 km/h (0 Bft) 95,65 %
20.07.2019 05:06 25,6 C 15,9 C 17,2 C 48 % 87 % 82 % 1016,5 hPa 0,0 l/m 0,0 km/h (0 Bft) N 0 0,000 mm 13,7 C 15,9 C 0,0 km/h (0 Bft) 100,00 %
20.07.2019 05:05 25,6 C 15,9 C 17,2 C 48 % 87 % 82 % 1016,4 hPa 0,0 l/m 0,0 km/h (0 Bft) N 0 0,000 mm 13,7 C 15,9 C 0,0 km/h (0 Bft) 100,00 %
20.07.2019 05:04 25,6 C 15,9 C 17,2 C 48 % 87 % 82 % 1016,5 hPa 0,0 l/m 0,0 km/h (0 Bft) N 0 0,000 mm 13,7 C 15,9 C 0,0 km/h (0 Bft) 100,00 %
20.07.2019 05:03 25,6 C 15,9 C 17,2 C 48 % 87 % 82 % 1016,5 hPa 0,0 l/m 0,0 km/h (0 Bft) N 0 0,000 mm 13,7 C 15,9 C 0,0 km/h (0 Bft) 100,00 %
20.07.2019 05:02 25,6 C 15,9 C 17,2 C 48 % 87 % 82 % 1016,4 hPa 0,0 l/m 0,0 km/h (0 Bft) N 0 0,000 mm 13,7 C 15,9 C 0,0 km/h (0 Bft) 100,00 %
20.07.2019 05:01 25,6 C 15,9 C 17,2 C 48 % 87 % 82 % 1016,5 hPa 0,0 l/m 0,0 km/h (0 Bft) N 0 0,000 mm 13,7 C 15,9 C 0,0 km/h (0 Bft) 95,65 %
20.07.2019 05:00 25,6 C 15,9 C 17,2 C 48 % 87 % 82 % 1016,6 hPa 0,0 l/m 0,0 km/h (0 Bft) NO 45 0,000 mm 13,7 C 15,9 C 1,6 km/h (1 Bft) 95,65 %
20.07.2019 04:59 25,7 C 15,9 C 17,2 C 48 % 88 % 82 % 1016,5 hPa 0,0 l/m 0,0 km/h (0 Bft) NO 45 0,000 mm 13,9 C 15,9 C 1,6 km/h (1 Bft) 100,00 %
20.07.2019 04:58 25,6 C 15,9 C 17,2 C 48 % 87 % 82 % 1016,5 hPa 0,0 l/m 0,0 km/h (0 Bft) NO 45 0,000 mm 13,7 C 15,9 C 1,6 km/h (1 Bft) 100,00 %
20.07.2019 04:57 25,6 C 15,9 C 17,2 C 48 % 87 % 82 % 1016,5 hPa 0,0 l/m 0,0 km/h (0 Bft) N 0 0,000 mm 13,7 C 15,9 C 0,0 km/h (0 Bft) 100,00 %
20.07.2019 04:56 25,6 C 15,9 C 17,2 C 48 % 87 % 82 % 1016,5 hPa 0,0 l/m 0,0 km/h (0 Bft) N 0 0,000 mm 13,7 C 15,9 C 0,0 km/h (0 Bft) 95,65 %
20.07.2019 04:55 25,6 C 15,9 C 17,2 C 48 % 87 % 82 % 1016,5 hPa 0,0 l/m 0,0 km/h (0 Bft) N 0 0,000 mm 13,7 C 15,9 C 0,0 km/h (0 Bft) 100,00 %
20.07.2019 04:54 25,6 C 15,9 C 17,2 C 48 % 87 % 82 % 1016,5 hPa 0,0 l/m 0,0 km/h (0 Bft) N 0 0,000 mm 13,7 C 15,9 C 0,0 km/h (0 Bft) 95,65 %
20.07.2019 04:53 25,6 C 16,0 C 17,2 C 48 % 87 % 82 % 1016,5 hPa 0,0 l/m 0,0 km/h (0 Bft) N 0 0,000 mm 13,8 C 16,0 C 0,0 km/h (0 Bft) 91,30 %
20.07.2019 04:52 25,7 C 16,0 C 17,2 C 48 % 87 % 82 % 1016,6 hPa 0,0 l/m 0,0 km/h (0 Bft) N 0 0,000 mm 13,8 C 16,0 C 0,0 km/h (0 Bft) 100,00 %
20.07.2019 04:51 25,7 C 16,0 C 17,2 C 48 % 87 % 81 % 1016,5 hPa 0,0 l/m 0,0 km/h (0 Bft) N 0 0,000 mm 13,8 C 16,0 C 0,0 km/h (0 Bft) 100,00 %
20.07.2019 04:50 25,6 C 16,0 C 17,2 C 48 % 87 % 81 % 1016,5 hPa 0,0 l/m 0,0 km/h (0 Bft) N 0 0,000 mm 13,8 C 16,0 C 0,0 km/h (0 Bft) 100,00 %
20.07.2019 04:49 25,7 C 16,0 C 17,2 C 48 % 87 % 81 % 1016,5 hPa 0,0 l/m 0,0 km/h (0 Bft) N 0 0,000 mm 13,8 C 16,0 C 0,0 km/h (0 Bft) 100,00 %
20.07.2019 04:48 25,7 C 16,0 C 17,2 C 48 % 87 % 81 % 1016,5 hPa 0,0 l/m 0,0 km/h (0 Bft) N 0 0,000 mm 13,8 C 16,0 C 0,0 km/h (0 Bft) 95,65 %
20.07.2019 04:47 25,7 C 16,1 C 17,8 C 48 % 87 % 81 % 1016,5 hPa 0,0 l/m 0,0 km/h (0 Bft) N 0 0,000 mm 13,9 C 16,1 C 0,0 km/h (0 Bft) 100,00 %
20.07.2019 04:46 25,7 C 16,1 C 17,8 C 48 % 87 % 81 % 1016,5 hPa 0,0 l/m 0,0 km/h (0 Bft) N 0 0,000 mm 13,9 C 16,1 C 0,0 km/h (0 Bft) 91,30 %
20.07.2019 04:45 25,6 C 16,1 C 17,8 C 48 % 87 % 81 % 1016,5 hPa 0,0 l/m 0,0 km/h (0 Bft) N 0 0,000 mm 13,9 C 16,1 C 0,0 km/h (0 Bft) 100,00 %
20.07.2019 04:44 25,6 C 16,1 C 17,8 C 48 % 86 % 81 % 1016,5 hPa 0,0 l/m 0,0 km/h (0 Bft) N 0 0,000 mm 13,8 C 16,1 C 0,0 km/h (0 Bft) 100,00 %
20.07.2019 04:43 25,7 C 16,1 C 17,8 C 48 % 86 % 81 % 1016,4 hPa 0,0 l/m 0,0 km/h (0 Bft) N 0 0,000 mm 13,8 C 16,1 C 0,0 km/h (0 Bft) 100,00 %
20.07.2019 04:42 25,7 C 16,1 C 17,8 C 48 % 86 % 81 % 1016,5 hPa 0,0 l/m 0,0 km/h (0 Bft) N 0 0,000 mm 13,8 C 16,1 C 0,0 km/h (0 Bft) 100,00 %
20.07.2019 04:41 25,7 C 16,1 C 17,8 C 48 % 86 % 81 % 1016,4 hPa 0,0 l/m 0,0 km/h (0 Bft) N 0 0,000 mm 13,8 C 16,1 C 0,0 km/h (0 Bft) 100,00 %
20.07.2019 04:40 25,7 C 16,1 C 17,8 C 48 % 86 % 81 % 1016,4 hPa 0,0 l/m 0,0 km/h (0 Bft) NO 45 0,000 mm 13,8 C 16,1 C 1,6 km/h (1 Bft) 91,30 %
20.07.2019 04:39 25,7 C 16,1 C 17,8 C 48 % 86 % 81 % 1016,4 hPa 0,0 l/m 0,0 km/h (0 Bft) N 0 0,000 mm 13,8 C 16,1 C 0,0 km/h (0 Bft) 91,30 %
20.07.2019 04:38 25,7 C 16,1 C 17,8 C 48 % 86 % 81 % 1016,4 hPa 0,0 l/m 0,0 km/h (0 Bft) N 0 0,000 mm 13,8 C 16,1 C 0,0 km/h (0 Bft) 95,65 %
20.07.2019 04:37 25,7 C 16,1 C 17,8 C 48 % 86 % 81 % 1016,4 hPa 0,0 l/m 0,0 km/h (0 Bft) N 0 0,000 mm 13,8 C 16,1 C 0,0 km/h (0 Bft) 91,30 %
20.07.2019 04:36 25,7 C 16,1 C 17,8 C 48 % 86 % 81 % 1016,4 hPa 0,0 l/m 0,0 km/h (0 Bft) N 0 0,000 mm 13,8 C 16,1 C 0,0 km/h (0 Bft) 100,00 %
20.07.2019 04:35 25,7 C 16,2 C 17,8 C 48 % 86 % 81 % 1016,5 hPa 0,0 l/m 0,0 km/h (0 Bft) N 0 0,000 mm 13,9 C 16,2 C 0,0 km/h (0 Bft) 100,00 %
20.07.2019 04:34 25,7 C 16,2 C 17,8 C 48 % 86 % 81 % 1016,5 hPa 0,0 l/m 0,0 km/h (0 Bft) N 0 0,000 mm 13,9 C 16,2 C 0,0 km/h (0 Bft) 100,00 %
20.07.2019 04:33 25,7 C 16,2 C 17,8 C 48 % 86 % 81 % 1016,4 hPa 0,0 l/m 0,0 km/h (0 Bft) N 0 0,000 mm 13,9 C 16,2 C 0,0 km/h (0 Bft) 100,00 %
20.07.2019 04:32 25,7 C 16,2 C 17,8 C 48 % 86 % 81 % 1016,5 hPa 0,0 l/m 0,0 km/h (0 Bft) N 0 0,000 mm 13,9 C 16,2 C 0,0 km/h (0 Bft) 86,96 %
20.07.2019 04:31 25,7 C 16,2 C 17,8 C 48 % 86 % 81 % 1016,4 hPa 0,0 l/m 0,0 km/h (0 Bft) N 0 0,000 mm 13,9 C 16,2 C 0,0 km/h (0 Bft) 100,00 %
20.07.2019 04:30 25,7 C 16,2 C 17,8 C 48 % 86 % 81 % 1016,5 hPa 0,0 l/m 0,0 km/h (0 Bft) N 0 0,000 mm 13,9 C 16,2 C 0,0 km/h (0 Bft) 100,00 %
20.07.2019 04:29 25,7 C 16,2 C 17,8 C 48 % 86 % 81 % 1016,4 hPa 0,0 l/m 0,0 km/h (0 Bft) N 0 0,000 mm 13,9 C 16,2 C 0,0 km/h (0 Bft) 100,00 %
20.07.2019 04:28 25,7 C 16,2 C 17,8 C 48 % 86 % 81 % 1016,6 hPa 0,0 l/m 0,0 km/h (0 Bft) N 0 0,000 mm 13,9 C 16,2 C 0,0 km/h (0 Bft) 100,00 %
20.07.2019 04:27 25,7 C 16,2 C 17,8 C 48 % 86 % 81 % 1016,4 hPa 0,0 l/m 0,0 km/h (0 Bft) N 0 0,000 mm 13,9 C 16,2 C 0,0 km/h (0 Bft) 95,65 %
20.07.2019 04:26 25,7 C 16,2 C 17,8 C 48 % 86 % 81 % 1016,5 hPa 0,0 l/m 0,0 km/h (0 Bft) N 0 0,000 mm 13,9 C 16,2 C 0,0 km/h (0 Bft) 100,00 %
20.07.2019 04:25 25,7 C 16,3 C 17,8 C 48 % 86 % 80 % 1016,5 hPa 0,0 l/m 0,0 km/h (0 Bft) N 0 0,000 mm 14,0 C 16,3 C 0,0 km/h (0 Bft) 91,30 %
20.07.2019 04:24 25,7 C 16,3 C 17,8 C 48 % 86 % 81 % 1016,5 hPa 0,0 l/m 0,0 km/h (0 Bft) N 0 0,000 mm 14,0 C 16,3 C 0,0 km/h (0 Bft) 100,00 %
20.07.2019 04:23 25,7 C 16,3 C 17,8 C 48 % 86 % 80 % 1016,5 hPa 0,0 l/m 0,0 km/h (0 Bft) N 0 0,000 mm 14,0 C 16,3 C 0,0 km/h (0 Bft) 95,65 %
20.07.2019 04:22 25,7 C 16,3 C 17,8 C 48 % 86 % 80 % 1016,5 hPa 0,0 l/m 0,0 km/h (0 Bft) N 0 0,000 mm 14,0 C 16,3 C 0,0 km/h (0 Bft) 95,65 %
20.07.2019 04:21 25,7 C 16,3 C 17,8 C 48 % 86 % 80 % 1016,5 hPa 0,0 l/m 0,0 km/h (0 Bft) N 0 0,000 mm 14,0 C 16,3 C 0,0 km/h (0 Bft) 100,00 %
20.07.2019 04:20 25,7 C 16,3 C 17,8 C 48 % 86 % 80 % 1016,4 hPa 0,0 l/m 0,0 km/h (0 Bft) N 0 0,000 mm 14,0 C 16,3 C 0,0 km/h (0 Bft) 95,65 %
20.07.2019 04:19 25,7 C 16,3 C 17,8 C 48 % 86 % 80 % 1016,4 hPa 0,0 l/m 0,0 km/h (0 Bft) N 0 0,000 mm 14,0 C 16,3 C 0,0 km/h (0 Bft) 100,00 %
20.07.2019 04:18 25,7 C 16,3 C 17,8 C 48 % 85 % 80 % 1016,5 hPa 0,0 l/m 0,0 km/h (0 Bft) N 0 0,000 mm 13,8 C 16,3 C 0,0 km/h (0 Bft) 91,30 %
20.07.2019 04:17 25,7 C 16,3 C 17,8 C 48 % 85 % 80 % 1016,4 hPa 0,0 l/m 0,0 km/h (0 Bft) N 0 0,000 mm 13,8 C 16,3 C 0,0 km/h (0 Bft) 95,65 %
20.07.2019 04:16 25,7 C 16,3 C 17,8 C 48 % 85 % 80 % 1016,4 hPa 0,0 l/m 0,0 km/h (0 Bft) N 0 0,000 mm 13,8 C 16,3 C 0,0 km/h (0 Bft) 95,65 %
20.07.2019 04:15 25,7 C 16,3 C 17,8 C 48 % 85 % 80 % 1016,4 hPa 0,0 l/m 0,0 km/h (0 Bft) N 0 0,000 mm 13,8 C 16,3 C 0,0 km/h (0 Bft) 95,65 %
20.07.2019 04:14 25,7 C 16,3 C 17,8 C 48 % 85 % 80 % 1016,4 hPa 0,0 l/m 0,0 km/h (0 Bft) N 0 0,000 mm 13,8 C 16,3 C 0,0 km/h (0 Bft) 95,65 %
20.07.2019 04:13 25,7 C 16,4 C 17,8 C 48 % 85 % 80 % 1016,4 hPa 0,0 l/m 0,0 km/h (0 Bft) N 0 0,000 mm 13,9 C 16,4 C 0,0 km/h (0 Bft) 95,65 %
20.07.2019 04:12 25,7 C 16,4 C 17,8 C 48 % 85 % 79 % 1016,4 hPa 0,0 l/m 0,0 km/h (0 Bft) N 0 0,000 mm 13,9 C 16,4 C 0,0 km/h (0 Bft) 100,00 %
20.07.2019 04:11 25,7 C 16,4 C 17,8 C 48 % 85 % 79 % 1016,5 hPa 0,0 l/m 0,0 km/h (0 Bft) N 0 0,000 mm 13,9 C 16,4 C 0,0 km/h (0 Bft) 86,96 %
20.07.2019 04:10 25,7 C 16,4 C 17,8 C 48 % 85 % 79 % 1016,3 hPa 0,0 l/m 0,0 km/h (0 Bft) N 0 0,000 mm 13,9 C 16,4 C 0,0 km/h (0 Bft) 100,00 %
20.07.2019 04:09 25,7 C 16,4 C 17,8 C 48 % 85 % 79 % 1016,4 hPa 0,0 l/m 0,0 km/h (0 Bft) N 0 0,000 mm 13,9 C 16,4 C 0,0 km/h (0 Bft) 95,65 %
20.07.2019 04:08 25,7 C 16,4 C 17,8 C 48 % 84 % 79 % 1016,3 hPa 0,0 l/m 0,0 km/h (0 Bft) N 0 0,000 mm 13,7 C 16,4 C 0,0 km/h (0 Bft) 100,00 %
20.07.2019 04:07 25,7 C 16,4 C 17,8 C 48 % 84 % 79 % 1016,4 hPa 0,0 l/m 0,0 km/h (0 Bft) N 0 0,000 mm 13,7 C 16,4 C 0,0 km/h (0 Bft) 95,65 %
20.07.2019 04:06 25,7 C 16,4 C 17,8 C 48 % 84 % 79 % 1016,4 hPa 0,0 l/m 0,0 km/h (0 Bft) NO 45 0,000 mm 13,7 C 16,4 C 1,6 km/h (1 Bft) 95,65 %
20.07.2019 04:05 25,7 C 16,5 C 17,8 C 48 % 84 % 79 % 1016,4 hPa 0,0 l/m 0,0 km/h (0 Bft) NO 45 0,000 mm 13,8 C 16,5 C 1,6 km/h (1 Bft) 95,65 %
20.07.2019 04:04 25,7 C 16,5 C 17,8 C 48 % 84 % 79 % 1016,4 hPa 0,0 l/m 0,0 km/h (0 Bft) N 0 0,000 mm 13,8 C 16,5 C 0,0 km/h (0 Bft) 86,96 %
20.07.2019 04:03 25,7 C 16,5 C 17,8 C 48 % 84 % 79 % 1016,4 hPa 0,0 l/m 0,0 km/h (0 Bft) N 0 0,000 mm 13,8 C 16,5 C 0,0 km/h (0 Bft) 95,65 %
20.07.2019 04:02 25,7 C 16,6 C 17,8 C 48 % 84 % 79 % 1016,3 hPa 0,0 l/m 0,0 km/h (0 Bft) N 0 0,000 mm 13,9 C 16,6 C 0,0 km/h (0 Bft) 95,65 %
20.07.2019 04:01 25,7 C 16,6 C 17,8 C 48 % 84 % 79 % 1016,4 hPa 0,0 l/m 0,0 km/h (0 Bft) N 0 0,000 mm 13,9 C 16,6 C 0,0 km/h (0 Bft) 100,00 %
20.07.2019 04:00 25,7 C 16,6 C 18,3 C 48 % 84 % 79 % 1016,3 hPa 0,0 l/m 0,0 km/h (0 Bft) N 0 0,000 mm 13,9 C 16,6 C 0,0 km/h (0 Bft) 95,65 %
20.07.2019 03:59 25,7 C 16,6 C 18,3 C 48 % 84 % 79 % 1016,4 hPa 0,0 l/m 0,0 km/h (0 Bft) N 0 0,000 mm 13,9 C 16,6 C 0,0 km/h (0 Bft) 100,00 %
20.07.2019 03:58 25,8 C 16,6 C 18,3 C 48 % 83 % 79 % 1016,4 hPa 0,0 l/m 0,0 km/h (0 Bft) N 0 0,000 mm 13,7 C 16,6 C 0,0 km/h (0 Bft) 95,65 %
20.07.2019 03:57 25,7 C 16,6 C 18,3 C 48 % 83 % 79 % 1016,4 hPa 0,0 l/m 0,0 km/h (0 Bft) N 0 0,000 mm 13,7 C 16,6 C 0,0 km/h (0 Bft) 95,65 %
20.07.2019 03:56 25,7 C 16,6 C 18,3 C 48 % 83 % 79 % 1016,4 hPa 0,0 l/m 0,0 km/h (0 Bft) N 0 0,000 mm 13,7 C 16,6 C 0,0 km/h (0 Bft) 100,00 %
20.07.2019 03:55 25,8 C 16,6 C 18,3 C 48 % 83 % 79 % 1016,4 hPa 0,0 l/m 0,0 km/h (0 Bft) N 0 0,000 mm 13,7 C 16,6 C 0,0 km/h (0 Bft) 100,00 %
20.07.2019 03:54 25,8 C 16,7 C 18,3 C 48 % 84 % 79 % 1016,4 hPa 0,0 l/m 0,0 km/h (0 Bft) N 0 0,000 mm 14,0 C 16,7 C 0,0 km/h (0 Bft) 100,00 %
20.07.2019 03:53 25,7 C 16,7 C 18,3 C 48 % 84 % 79 % 1016,4 hPa 0,0 l/m 0,0 km/h (0 Bft) N 0 0,000 mm 14,0 C 16,7 C 0,0 km/h (0 Bft) 100,00 %
20.07.2019 03:52 25,7 C 16,7 C 18,3 C 48 % 84 % 79 % 1016,3 hPa 0,0 l/m 0,0 km/h (0 Bft) N 0 0,000 mm 14,0 C 16,7 C 0,0 km/h (0 Bft) 100,00 %
20.07.2019 03:51 25,7 C 16,7 C 18,3 C 48 % 84 % 79 % 1016,5 hPa 0,0 l/m 0,0 km/h (0 Bft) N 0 0,000 mm 14,0 C 16,7 C 0,0 km/h (0 Bft) 95,65 %
20.07.2019 03:50 25,7 C 16,7 C 18,3 C 48 % 83 % 79 % 1016,4 hPa 0,0 l/m 0,0 km/h (0 Bft) N 0 0,000 mm 13,8 C 16,7 C 0,0 km/h (0 Bft) 95,65 %
20.07.2019 03:49 25,7 C 16,7 C 18,3 C 48 % 83 % 79 % 1016,4 hPa 0,0 l/m 0,0 km/h (0 Bft) NO 45 0,000 mm 13,8 C 16,7 C 1,6 km/h (1 Bft) 100,00 %
20.07.2019 03:48 25,8 C 16,7 C 18,3 C 48 % 83 % 78 % 1016,4 hPa 0,0 l/m 0,0 km/h (0 Bft) NO 45 0,000 mm 13,8 C 16,7 C 1,6 km/h (1 Bft) 100,00 %
20.07.2019 03:47 25,8 C 16,8 C 18,3 C 48 % 83 % 78 % 1016,4 hPa 0,0 l/m 1,6 km/h (1 Bft) NO 45 0,000 mm 13,9 C 16,8 C 1,6 km/h (1 Bft) 100,00 %
20.07.2019 03:46 25,8 C 16,8 C 18,3 C 48 % 83 % 78 % 1016,4 hPa 0,0 l/m 0,0 km/h (0 Bft) NO 45 0,000 mm 13,9 C 16,8 C 1,6 km/h (1 Bft) 100,00 %
20.07.2019 03:45 25,8 C 16,8 C 18,3 C 48 % 83 % 78 % 1016,3 hPa 0,0 l/m 0,0 km/h (0 Bft) NO 45 0,000 mm 13,9 C 16,8 C 1,6 km/h (1 Bft) 95,65 %
20.07.2019 03:44 25,8 C 16,8 C 18,3 C 48 % 83 % 78 % 1016,2 hPa 0,0 l/m 0,0 km/h (0 Bft) N 0 0,000 mm 13,9 C 16,8 C 0,0 km/h (0 Bft) 100,00 %
20.07.2019 03:43 25,8 C 16,8 C 18,3 C 48 % 83 % 78 % 1016,3 hPa 0,0 l/m 0,0 km/h (0 Bft) N 0 0,000 mm 13,9 C 16,8 C 0,0 km/h (0 Bft) 91,30 %
20.07.2019 03:42 25,8 C 16,9 C 18,3 C 48 % 83 % 78 % 1016,3 hPa 0,0 l/m 0,0 km/h (0 Bft) N 0 0,000 mm 14,0 C 16,9 C 0,0 km/h (0 Bft) 100,00 %
20.07.2019 03:41 25,8 C 16,9 C 18,3 C 48 % 82 % 78 % 1016,4 hPa 0,0 l/m 0,0 km/h (0 Bft) NO 45 0,000 mm 13,8 C 16,9 C 1,6 km/h (1 Bft) 100,00 %
20.07.2019 03:40 25,8 C 16,9 C 18,3 C 48 % 82 % 78 % 1016,3 hPa 0,0 l/m 1,6 km/h (1 Bft) NO 45 0,000 mm 13,8 C 16,9 C 1,6 km/h (1 Bft) 100,00 %
20.07.2019 03:39 25,8 C 16,9 C 18,3 C 48 % 82 % 78 % 1016,3 hPa 0,0 l/m 0,0 km/h (0 Bft) NO 45 0,000 mm 13,8 C 16,9 C 1,6 km/h (1 Bft) 100,00 %
20.07.2019 03:38 25,8 C 16,9 C 18,3 C 48 % 82 % 78 % 1016,4 hPa 0,0 l/m 0,0 km/h (0 Bft) N 0 0,000 mm 13,8 C 16,9 C 0,0 km/h (0 Bft) 100,00 %
20.07.2019 03:37 25,8 C 17,0 C 18,3 C 48 % 82 % 78 % 1016,4 hPa 0,0 l/m 0,0 km/h (0 Bft) NO 45 0,000 mm 13,9 C 17,0 C 1,6 km/h (1 Bft) 100,00 %
20.07.2019 03:36 25,8 C 17,0 C 18,3 C 48 % 82 % 78 % 1016,4 hPa 0,0 l/m 0,0 km/h (0 Bft) N 0 0,000 mm 13,9 C 17,0 C 0,0 km/h (0 Bft) 91,30 %
20.07.2019 03:35 25,8 C 17,0 C 18,3 C 48 % 82 % 78 % 1016,4 hPa 0,0 l/m 0,0 km/h (0 Bft) NO 45 0,000 mm 13,9 C 17,0 C 1,6 km/h (1 Bft) 100,00 %
20.07.2019 03:34 25,8 C 17,0 C 18,3 C 48 % 82 % 78 % 1016,4 hPa 0,0 l/m 0,0 km/h (0 Bft) NO 45 0,000 mm 13,9 C 17,0 C 1,6 km/h (1 Bft) 100,00 %
20.07.2019 03:33 25,8 C 17,1 C 18,3 C 48 % 82 % 78 % 1016,5 hPa 0,0 l/m 0,0 km/h (0 Bft) NO 45 0,000 mm 14,0 C 17,1 C 1,6 km/h (1 Bft) 91,30 %
20.07.2019 03:32 25,8 C 17,1 C 18,3 C 48 % 82 % 78 % 1016,5 hPa 0,0 l/m 0,0 km/h (0 Bft) NO 45 0,000 mm 14,0 C 17,1 C 1,6 km/h (1 Bft) 100,00 %
20.07.2019 03:31 25,8 C 17,1 C 18,3 C 48 % 82 % 78 % 1016,4 hPa 0,0 l/m 0,0 km/h (0 Bft) NO 45 0,000 mm 14,0 C 17,1 C 1,6 km/h (1 Bft) 100,00 %
20.07.2019 03:30 25,8 C 17,1 C 18,3 C 48 % 82 % 77 % 1016,4 hPa 0,0 l/m 0,0 km/h (0 Bft) NO 45 0,000 mm 14,0 C 17,1 C 1,6 km/h (1 Bft) 100,00 %
20.07.2019 03:29 25,8 C 17,1 C 18,3 C 48 % 82 % 78 % 1016,4 hPa 0,0 l/m 1,6 km/h (1 Bft) NO 45 0,000 mm 14,0 C 17,1 C 1,6 km/h (1 Bft) 95,65 %
20.07.2019 03:28 25,8 C 17,1 C 18,3 C 48 % 82 % 78 % 1016,5 hPa 0,0 l/m 1,6 km/h (1 Bft) NO 45 0,000 mm 14,0 C 17,1 C 3,2 km/h (1 Bft) 100,00 %
20.07.2019 03:27 25,8 C 17,1 C 18,3 C 48 % 82 % 78 % 1016,3 hPa 0,0 l/m 1,6 km/h (1 Bft) NO 45 0,000 mm 14,0 C 17,1 C 1,6 km/h (1 Bft) 100,00 %
20.07.2019 03:26 25,8 C 17,1 C 18,3 C 48 % 82 % 78 % 1016,4 hPa 0,0 l/m 1,6 km/h (1 Bft) NO 45 0,000 mm 14,0 C 17,1 C 3,2 km/h (1 Bft) 95,65 %
20.07.2019 03:25 25,8 C 17,1 C 18,3 C 48 % 82 % 78 % 1016,4 hPa 0,0 l/m 1,6 km/h (1 Bft) NO 45 0,000 mm 14,0 C 17,1 C 3,2 km/h (1 Bft) 100,00 %
20.07.2019 03:24 25,8 C 17,2 C 18,3 C 48 % 82 % 78 % 1016,5 hPa 0,0 l/m 1,6 km/h (1 Bft) NO 45 0,000 mm 14,1 C 17,2 C 3,2 km/h (1 Bft) 100,00 %
20.07.2019 03:23 25,8 C 17,2 C 18,3 C 48 % 82 % 78 % 1016,3 hPa 0,0 l/m 1,6 km/h (1 Bft) NO 45 0,000 mm 14,1 C 17,2 C 3,2 km/h (1 Bft) 100,00 %
20.07.2019 03:22 25,8 C 17,2 C 18,3 C 48 % 82 % 78 % 1016,4 hPa 0,0 l/m 1,6 km/h (1 Bft) NO 45 0,000 mm 14,1 C 17,2 C 3,2 km/h (1 Bft) 95,65 %
20.07.2019 03:21 25,8 C 17,2 C 18,3 C 48 % 82 % 78 % 1016,4 hPa 0,0 l/m 1,6 km/h (1 Bft) NO 45 0,000 mm 14,1 C 17,2 C 1,6 km/h (1 Bft) 100,00 %
20.07.2019 03:20 25,8 C 17,2 C 18,3 C 48 % 82 % 78 % 1016,4 hPa 0,0 l/m 1,6 km/h (1 Bft) NO 45 0,000 mm 14,1 C 17,2 C 3,2 km/h (1 Bft) 100,00 %
20.07.2019 03:19 25,8 C 17,2 C 18,3 C 48 % 82 % 78 % 1016,4 hPa 0,0 l/m 1,6 km/h (1 Bft) NO 45 0,000 mm 14,1 C 17,2 C 1,6 km/h (1 Bft) 95,65 %
20.07.2019 03:18 25,8 C 17,2 C 18,3 C 48 % 82 % 78 % 1016,4 hPa 0,0 l/m 1,6 km/h (1 Bft) NO 45 0,000 mm 14,1 C 17,2 C 3,2 km/h (1 Bft) 100,00 %
20.07.2019 03:17 25,8 C 17,2 C 18,9 C 48 % 82 % 78 % 1016,5 hPa 0,0 l/m 1,6 km/h (1 Bft) NO 45 0,000 mm 14,1 C 17,2 C 3,2 km/h (1 Bft) 95,65 %
20.07.2019 03:16 25,8 C 17,2 C 18,3 C 48 % 82 % 78 % 1016,4 hPa 0,0 l/m 1,6 km/h (1 Bft) NO 45 0,000 mm 14,1 C 17,2 C 1,6 km/h (1 Bft) 100,00 %
20.07.2019 03:15 25,8 C 17,2 C 18,9 C 48 % 82 % 78 % 1016,5 hPa 0,0 l/m 0,0 km/h (0 Bft) NO 45 0,000 mm 14,1 C 17,2 C 1,6 km/h (1 Bft) 95,65 %
20.07.2019 03:14 25,8 C 17,2 C 18,9 C 48 % 82 % 78 % 1016,5 hPa 0,0 l/m 0,0 km/h (0 Bft) NO 45 0,000 mm 14,1 C 17,2 C 1,6 km/h (1 Bft) 100,00 %
20.07.2019 03:13 25,8 C 17,3 C 18,9 C 48 % 81 % 78 % 1016,4 hPa 0,0 l/m 0,0 km/h (0 Bft) N 0 0,000 mm 14,0 C 17,3 C 0,0 km/h (0 Bft) 100,00 %
20.07.2019 03:12 25,8 C 17,3 C 18,9 C 48 % 81 % 78 % 1016,4 hPa 0,0 l/m 0,0 km/h (0 Bft) N 0 0,000 mm 14,0 C 17,3 C 0,0 km/h (0 Bft) 95,65 %
20.07.2019 03:11 25,8 C 17,3 C 18,9 C 48 % 81 % 78 % 1016,4 hPa 0,0 l/m 0,0 km/h (0 Bft) N 0 0,000 mm 14,0 C 17,3 C 0,0 km/h (0 Bft) 100,00 %
20.07.2019 03:10 25,8 C 17,3 C 18,9 C 48 % 81 % 78 % 1016,4 hPa 0,0 l/m 0,0 km/h (0 Bft) N 0 0,000 mm 14,0 C 17,3 C 0,0 km/h (0 Bft) 95,65 %
20.07.2019 03:09 25,8 C 17,3 C 18,9 C 48 % 81 % 78 % 1016,4 hPa 0,0 l/m 0,0 km/h (0 Bft) N 0 0,000 mm 14,0 C 17,3 C 0,0 km/h (0 Bft) 100,00 %
20.07.2019 03:08 25,8 C 17,3 C 18,9 C 48 % 81 % 77 % 1016,3 hPa 0,0 l/m 0,0 km/h (0 Bft) N 0 0,000 mm 14,0 C 17,3 C 0,0 km/h (0 Bft) 95,65 %
20.07.2019 03:07 25,8 C 17,3 C 18,9 C 48 % 81 % 77 % 1016,4 hPa 0,0 l/m 0,0 km/h (0 Bft) N 0 0,000 mm 14,0 C 17,3 C 0,0 km/h (0 Bft) 95,65 %
20.07.2019 02:59 25,9 C 17,4 C 18,9 C 48 % 81 % 77 % 1016,4 hPa 0,0 l/m 0,0 km/h (0 Bft) NO 45 0,000 mm 14,1 C 17,4 C 1,6 km/h (1 Bft) 95,65 %
20.07.2019 02:58 25,8 C 17,4 C 18,9 C 48 % 80 % 77 % 1016,4 hPa 0,0 l/m 0,0 km/h (0 Bft) NO 45 0,000 mm 13,9 C 17,4 C 1,6 km/h (1 Bft) 95,65 %
20.07.2019 02:57 25,8 C 17,4 C 18,9 C 48 % 81 % 77 % 1016,5 hPa 0,0 l/m 0,0 km/h (0 Bft) N 0 0,000 mm 14,1 C 17,4 C 0,0 km/h (0 Bft) 95,65 %
20.07.2019 02:56 25,8 C 17,4 C 18,9 C 48 % 81 % 77 % 1016,4 hPa 0,0 l/m 0,0 km/h (0 Bft) N 0 0,000 mm 14,1 C 17,4 C 0,0 km/h (0 Bft) 100,00 %
20.07.2019 02:55 25,8 C 17,4 C 18,9 C 48 % 81 % 77 % 1016,5 hPa 0,0 l/m 0,0 km/h (0 Bft) N 0 0,000 mm 14,1 C 17,4 C 0,0 km/h (0 Bft) 100,00 %
20.07.2019 02:54 25,8 C 17,5 C 18,9 C 48 % 81 % 77 % 1016,6 hPa 0,0 l/m 0,0 km/h (0 Bft) N 0 0,000 mm 14,2 C 17,5 C 0,0 km/h (0 Bft) 95,65 %
20.07.2019 02:53 25,8 C 17,5 C 18,9 C 48 % 81 % 77 % 1016,6 hPa 0,0 l/m 0,0 km/h (0 Bft) NO 45 0,000 mm 14,2 C 17,5 C 1,6 km/h (1 Bft) 100,00 %
20.07.2019 02:52 25,8 C 17,5 C 18,9 C 48 % 81 % 77 % 1016,6 hPa 0,0 l/m 0,0 km/h (0 Bft) NO 45 0,000 mm 14,2 C 17,5 C 1,6 km/h (1 Bft) 95,65 %
20.07.2019 02:51 25,9 C 17,4 C 18,9 C 48 % 81 % 77 % 1016,6 hPa 0,0 l/m 0,0 km/h (0 Bft) N 0 0,000 mm 14,1 C 17,4 C 0,0 km/h (0 Bft) 100,00 %
20.07.2019 02:50 25,9 C 17,5 C 18,9 C 48 % 80 % 77 % 1016,5 hPa 0,0 l/m 0,0 km/h (0 Bft) NO 45 0,000 mm 14,0 C 17,5 C 1,6 km/h (1 Bft) 95,65 %
20.07.2019 02:49 25,9 C 17,4 C 18,9 C 48 % 81 % 77 % 1016,6 hPa 0,0 l/m 1,6 km/h (1 Bft) NO 45 0,000 mm 14,1 C 17,4 C 1,6 km/h (1 Bft) 100,00 %
20.07.2019 02:48 25,9 C 17,4 C 18,9 C 48 % 81 % 77 % 1016,6 hPa 0,0 l/m 0,0 km/h (0 Bft) NO 45 0,000 mm 14,1 C 17,4 C 1,6 km/h (1 Bft) 91,30 %
20.07.2019 02:47 25,9 C 17,4 C 18,9 C 48 % 81 % 77 % 1016,5 hPa 0,0 l/m 0,0 km/h (0 Bft) NO 45 0,000 mm 14,1 C 17,4 C 1,6 km/h (1 Bft) 95,65 %
20.07.2019 02:46 25,9 C 17,4 C 18,9 C 48 % 81 % 77 % 1016,6 hPa 0,0 l/m 1,6 km/h (1 Bft) NO 45 0,000 mm 14,1 C 17,4 C 3,2 km/h (1 Bft) 95,65 %
20.07.2019 02:45 25,9 C 17,4 C 18,9 C 48 % 81 % 77 % 1016,6 hPa 0,0 l/m 1,6 km/h (1 Bft) NO 45 0,000 mm 14,1 C 17,4 C 3,2 km/h (1 Bft) 95,65 %
20.07.2019 02:44 25,9 C 17,5 C 18,9 C 48 % 81 % 77 % 1016,5 hPa 0,0 l/m 3,2 km/h (1 Bft) NO 45 0,000 mm 14,2 C 17,5 C 3,2 km/h (1 Bft) 100,00 %
20.07.2019 02:43 25,9 C 17,4 C 18,9 C 48 % 81 % 77 % 1016,5 hPa 0,0 l/m 3,2 km/h (1 Bft) NO 45 0,000 mm 14,1 C 17,4 C 3,2 km/h (1 Bft) 95,65 %
20.07.2019 02:42 25,9 C 17,4 C 18,9 C 48 % 81 % 77 % 1016,6 hPa 0,0 l/m 1,6 km/h (1 Bft) NO 45 0,000 mm 14,1 C 17,4 C 1,6 km/h (1 Bft) 100,00 %
20.07.2019 02:41 25,9 C 17,4 C 18,9 C 48 % 81 % 77 % 1016,6 hPa 0,0 l/m 1,6 km/h (1 Bft) NO 45 0,000 mm 14,1 C 17,4 C 3,2 km/h (1 Bft) 86,96 %
20.07.2019 02:40 25,9 C 17,4 C 18,9 C 48 % 81 % 77 % 1016,5 hPa 0,0 l/m 1,6 km/h (1 Bft) NO 45 0,000 mm 14,1 C 17,4 C 1,6 km/h (1 Bft) 100,00 %
20.07.2019 02:39 25,9 C 17,4 C 18,9 C 48 % 81 % 77 % 1016,5 hPa 0,0 l/m 0,0 km/h (0 Bft) NO 45 0,000 mm 14,1 C 17,4 C 1,6 km/h (1 Bft) 86,96 %
20.07.2019 02:38 25,9 C 17,5 C 18,9 C 48 % 81 % 77 % 1016,6 hPa 0,0 l/m 1,6 km/h (1 Bft) NO 45 0,000 mm 14,2 C 17,5 C 1,6 km/h (1 Bft) 95,65 %
20.07.2019 02:37 25,9 C 17,4 C 18,9 C 48 % 81 % 77 % 1016,6 hPa 0,0 l/m 1,6 km/h (1 Bft) NO 45 0,000 mm 14,1 C 17,4 C 1,6 km/h (1 Bft) 95,65 %
20.07.2019 02:36 25,9 C 17,5 C 18,9 C 48 % 81 % 77 % 1016,5 hPa 0,0 l/m 0,0 km/h (0 Bft) N 0 0,000 mm 14,2 C 17,5 C 0,0 km/h (0 Bft) 95,65 %
20.07.2019 02:35 25,9 C 17,5 C 18,9 C 48 % 80 % 77 % 1016,6 hPa 0,0 l/m 0,0 km/h (0 Bft) N 0 0,000 mm 14,0 C 17,5 C 0,0 km/h (0 Bft) 91,30 %
20.07.2019 02:34 25,9 C 17,5 C 18,9 C 48 % 80 % 77 % 1016,6 hPa 0,0 l/m 0,0 km/h (0 Bft) N 0 0,000 mm 14,0 C 17,5 C 0,0 km/h (0 Bft) 95,65 %
20.07.2019 02:33 25,9 C 17,5 C 18,9 C 48 % 80 % 77 % 1016,6 hPa 0,0 l/m 0,0 km/h (0 Bft) N 0 0,000 mm 14,0 C 17,5 C 0,0 km/h (0 Bft) 91,30 %
20.07.2019 02:32 25,9 C 17,6 C 18,9 C 48 % 80 % 77 % 1016,5 hPa 0,0 l/m 0,0 km/h (0 Bft) N 0 0,000 mm 14,1 C 17,6 C 0,0 km/h (0 Bft) 95,65 %
20.07.2019 02:31 25,9 C 17,6 C 18,9 C 48 % 80 % 77 % 1016,5 hPa 0,0 l/m 0,0 km/h (0 Bft) N 0 0,000 mm 14,1 C 17,6 C 0,0 km/h (0 Bft) 95,65 %
20.07.2019 02:30 25,9 C 17,6 C 18,9 C 48 % 80 % 77 % 1016,6 hPa 0,0 l/m 0,0 km/h (0 Bft) NO 45 0,000 mm 14,1 C 17,6 C 1,6 km/h (1 Bft) 91,30 %
20.07.2019 02:29 25,9 C 17,6 C 18,9 C 48 % 80 % 77 % 1016,6 hPa 0,0 l/m 0,0 km/h (0 Bft) NO 45 0,000 mm 14,1 C 17,6 C 1,6 km/h (1 Bft) 91,30 %
20.07.2019 02:28 25,9 C 17,6 C 18,9 C 48 % 80 % 76 % 1016,6 hPa 0,0 l/m 0,0 km/h (0 Bft) NO 45 0,000 mm 14,1 C 17,6 C 1,6 km/h (1 Bft) 95,65 %
20.07.2019 02:27 25,9 C 17,6 C 18,9 C 48 % 80 % 76 % 1016,5 hPa 0,0 l/m 0,0 km/h (0 Bft) NO 45 0,000 mm 14,1 C 17,6 C 1,6 km/h (1 Bft) 95,65 %
20.07.2019 02:26 25,9 C 17,6 C 18,9 C 48 % 80 % 76 % 1016,5 hPa 0,0 l/m 1,6 km/h (1 Bft) NO 45 0,000 mm 14,1 C 17,6 C 1,6 km/h (1 Bft) 95,65 %
20.07.2019 02:25 25,9 C 17,7 C 18,9 C 48 % 80 % 76 % 1016,6 hPa 0,0 l/m 1,6 km/h (1 Bft) NO 45 0,000 mm 14,2 C 17,7 C 1,6 km/h (1 Bft) 95,65 %
20.07.2019 02:24 25,9 C 17,7 C 18,9 C 48 % 80 % 76 % 1016,6 hPa 0,0 l/m 1,6 km/h (1 Bft) NO 45 0,000 mm 14,2 C 17,7 C 1,6 km/h (1 Bft) 95,65 %
20.07.2019 02:23 25,9 C 17,7 C 18,9 C 48 % 80 % 76 % 1016,5 hPa 0,0 l/m 1,6 km/h (1 Bft) NO 45 0,000 mm 14,2 C 17,7 C 1,6 km/h (1 Bft) 100,00 %
20.07.2019 02:22 25,9 C 17,7 C 18,9 C 48 % 80 % 76 % 1016,5 hPa 0,0 l/m 1,6 km/h (1 Bft) NO 45 0,000 mm 14,2 C 17,7 C 1,6 km/h (1 Bft) 95,65 %
20.07.2019 02:21 25,9 C 17,7 C 18,9 C 48 % 79 % 76 % 1016,5 hPa 0,0 l/m 1,6 km/h (1 Bft) NO 45 0,000 mm 14,0 C 17,7 C 1,6 km/h (1 Bft) 100,00 %
20.07.2019 02:20 25,9 C 17,7 C 18,9 C 48 % 79 % 76 % 1016,6 hPa 0,0 l/m 0,0 km/h (0 Bft) NO 45 0,000 mm 14,0 C 17,7 C 1,6 km/h (1 Bft) 95,65 %
20.07.2019 02:19 25,9 C 17,7 C 18,9 C 48 % 79 % 76 % 1016,5 hPa 0,0 l/m 0,0 km/h (0 Bft) N 0 0,000 mm 14,0 C 17,7 C 0,0 km/h (0 Bft) 95,65 %
20.07.2019 02:18 25,9 C 17,8 C 18,9 C 48 % 79 % 76 % 1016,5 hPa 0,0 l/m 0,0 km/h (0 Bft) N 0 0,000 mm 14,1 C 17,8 C 0,0 km/h (0 Bft) 91,30 %
20.07.2019 02:17 25,9 C 17,8 C 19,4 C 48 % 79 % 76 % 1016,6 hPa 0,0 l/m 0,0 km/h (0 Bft) N 0 0,000 mm 14,1 C 17,8 C 0,0 km/h (0 Bft) 100,00 %
20.07.2019 02:16 25,9 C 17,8 C 19,4 C 48 % 79 % 76 % 1016,6 hPa 0,0 l/m 0,0 km/h (0 Bft) N 0 0,000 mm 14,1 C 17,8 C 0,0 km/h (0 Bft) 95,65 %
20.07.2019 02:15 25,9 C 17,8 C 19,4 C 48 % 79 % 76 % 1016,6 hPa 0,0 l/m 0,0 km/h (0 Bft) N 0 0,000 mm 14,1 C 17,8 C 0,0 km/h (0 Bft) 100,00 %
20.07.2019 02:14 25,9 C 17,8 C 19,4 C 48 % 79 % 76 % 1016,6 hPa 0,0 l/m 0,0 km/h (0 Bft) N 0 0,000 mm 14,1 C 17,8 C 0,0 km/h (0 Bft) 95,65 %
20.07.2019 02:13 25,9 C 17,8 C 19,4 C 48 % 79 % 76 % 1016,5 hPa 0,0 l/m 0,0 km/h (0 Bft) N 0 0,000 mm 14,1 C 17,8 C 0,0 km/h (0 Bft) 95,65 %
20.07.2019 02:12 25,9 C 17,8 C 19,4 C 48 % 79 % 76 % 1016,6 hPa 0,0 l/m 0,0 km/h (0 Bft) N 0 0,000 mm 14,1 C 17,8 C 0,0 km/h (0 Bft) 95,65 %
20.07.2019 02:11 25,9 C 17,8 C 19,4 C 48 % 78 % 76 % 1016,6 hPa 0,0 l/m 0,0 km/h (0 Bft) N 0 0,000 mm 13,9 C 17,8 C 0,0 km/h (0 Bft) 86,96 %
20.07.2019 02:10 25,9 C 17,8 C 19,4 C 48 % 78 % 76 % 1016,6 hPa 0,0 l/m 0,0 km/h (0 Bft) N 0 0,000 mm 13,9 C 17,8 C 0,0 km/h (0 Bft) 95,65 %
20.07.2019 02:09 25,9 C 17,9 C 19,4 C 48 % 79 % 76 % 1016,5 hPa 0,0 l/m 0,0 km/h (0 Bft) N 0 0,000 mm 14,2 C 17,9 C 0,0 km/h (0 Bft) 95,65 %
20.07.2019 02:08 25,9 C 17,9 C 19,4 C 48 % 79 % 75 % 1016,6 hPa 0,0 l/m 0,0 km/h (0 Bft) N 0 0,000 mm 14,2 C 17,9 C 0,0 km/h (0 Bft) 100,00 %
20.07.2019 02:07 25,9 C 17,9 C 19,4 C 48 % 79 % 75 % 1016,6 hPa 0,0 l/m 0,0 km/h (0 Bft) N 0 0,000 mm 14,2 C 17,9 C 0,0 km/h (0 Bft) 95,65 %
20.07.2019 02:06 25,9 C 17,9 C 19,4 C 48 % 78 % 75 % 1016,6 hPa 0,0 l/m 0,0 km/h (0 Bft) N 0 0,000 mm 14,0 C 17,9 C 0,0 km/h (0 Bft) 100,00 %
20.07.2019 02:05 25,9 C 17,9 C 19,4 C 48 % 78 % 75 % 1016,6 hPa 0,0 l/m 0,0 km/h (0 Bft) N 0 0,000 mm 14,0 C 17,9 C 0,0 km/h (0 Bft) 95,65 %
20.07.2019 02:04 25,9 C 17,9 C 19,4 C 48 % 78 % 75 % 1016,5 hPa 0,0 l/m 0,0 km/h (0 Bft) N 0 0,000 mm 14,0 C 17,9 C 0,0 km/h (0 Bft) 95,65 %
20.07.2019 02:03 25,9 C 18,0 C 19,4 C 48 % 78 % 75 % 1016,6 hPa 0,0 l/m 0,0 km/h (0 Bft) N 0 0,000 mm 14,1 C 18,0 C 0,0 km/h (0 Bft) 95,65 %
20.07.2019 02:02 25,9 C 17,9 C 19,4 C 48 % 78 % 75 % 1016,6 hPa 0,0 l/m 0,0 km/h (0 Bft) N 0 0,000 mm 14,0 C 17,9 C 0,0 km/h (0 Bft) 95,65 %
20.07.2019 02:01 25,9 C 18,0 C 19,4 C 48 % 78 % 75 % 1016,7 hPa 0,0 l/m 0,0 km/h (0 Bft) NO 45 0,000 mm 14,1 C 18,0 C 1,6 km/h (1 Bft) 95,65 %
20.07.2019 02:00 26,0 C 18,0 C 19,4 C 48 % 78 % 75 % 1016,6 hPa 0,0 l/m 0,0 km/h (0 Bft) N 0 0,000 mm 14,1 C 18,0 C 0,0 km/h (0 Bft) 100,00 %
20.07.2019 01:59 25,9 C 18,0 C 19,4 C 48 % 78 % 75 % 1016,6 hPa 0,0 l/m 0,0 km/h (0 Bft) N 0 0,000 mm 14,1 C 18,0 C 0,0 km/h (0 Bft) 95,65 %
20.07.2019 01:58 26,0 C 18,0 C 19,4 C 48 % 78 % 75 % 1016,6 hPa 0,0 l/m 0,0 km/h (0 Bft) N 0 0,000 mm 14,1 C 18,0 C 0,0 km/h (0 Bft) 95,65 %
20.07.2019 01:57 25,9 C 18,0 C 19,4 C 48 % 78 % 75 % 1016,6 hPa 0,0 l/m 0,0 km/h (0 Bft) NO 45 0,000 mm 14,1 C 18,0 C 1,6 km/h (1 Bft) 95,65 %
20.07.2019 01:56 26,0 C 18,0 C 19,4 C 48 % 78 % 75 % 1016,6 hPa 0,0 l/m 1,6 km/h (1 Bft) NO 45 0,000 mm 14,1 C 18,0 C 3,2 km/h (1 Bft) 95,65 %
20.07.2019 01:55 26,0 C 18,1 C 19,4 C 48 % 78 % 75 % 1016,6 hPa 0,0 l/m 1,6 km/h (1 Bft) NO 45 0,000 mm 14,2 C 18,1 C 3,2 km/h (1 Bft) 100,00 %
20.07.2019 01:54 25,9 C 18,1 C 19,4 C 48 % 78 % 74 % 1016,6 hPa 0,0 l/m 1,6 km/h (1 Bft) NO 45 0,000 mm 14,2 C 18,1 C 3,2 km/h (1 Bft) 91,30 %
20.07.2019 01:53 26,0 C 18,1 C 19,4 C 48 % 78 % 75 % 1016,6 hPa 0,0 l/m 1,6 km/h (1 Bft) NO 45 0,000 mm 14,2 C 18,1 C 3,2 km/h (1 Bft) 100,00 %
20.07.2019 01:52 26,0 C 18,1 C 19,4 C 48 % 78 % 74 % 1016,6 hPa 0,0 l/m 1,6 km/h (1 Bft) NO 45 0,000 mm 14,2 C 18,1 C 1,6 km/h (1 Bft) 91,30 %
20.07.2019 01:51 26,0 C 18,1 C 19,4 C 48 % 78 % 75 % 1016,7 hPa 0,0 l/m 0,0 km/h (0 Bft) NO 45 0,000 mm 14,2 C 18,1 C 1,6 km/h (1 Bft) 95,65 %
20.07.2019 01:50 26,0 C 18,1 C 19,4 C 48 % 78 % 75 % 1016,6 hPa 0,0 l/m 1,6 km/h (1 Bft) NO 45 0,000 mm 14,2 C 18,1 C 1,6 km/h (1 Bft) 86,96 %
20.07.2019 01:49 26,0 C 18,1 C 19,4 C 48 % 78 % 75 % 1016,6 hPa 0,0 l/m 1,6 km/h (1 Bft) NO 45 0,000 mm 14,2 C 18,1 C 3,2 km/h (1 Bft) 100,00 %
20.07.2019 01:48 26,0 C 18,1 C 19,4 C 48 % 78 % 75 % 1016,6 hPa 0,0 l/m 1,6 km/h (1 Bft) NO 45 0,000 mm 14,2 C 18,1 C 3,2 km/h (1 Bft) 91,30 %
20.07.2019 01:47 26,0 C 18,1 C 19,4 C 48 % 78 % 75 % 1016,6 hPa 0,0 l/m 1,6 km/h (1 Bft) NO 45 0,000 mm 14,2 C 18,1 C 3,2 km/h (1 Bft) 100,00 %
20.07.2019 01:46 26,0 C 18,1 C 19,4 C 48 % 78 % 75 % 1016,6 hPa 0,0 l/m 1,6 km/h (1 Bft) NO 45 0,000 mm 14,2 C 18,1 C 1,6 km/h (1 Bft) 95,65 %
20.07.2019 01:45 26,0 C 18,1 C 19,4 C 48 % 78 % 75 % 1016,7 hPa 0,0 l/m 1,6 km/h (1 Bft) NO 45 0,000 mm 14,2 C 18,1 C 3,2 km/h (1 Bft) 100,00 %
20.07.2019 01:44 26,0 C 18,1 C 19,4 C 48 % 78 % 75 % 1016,7 hPa 0,0 l/m 1,6 km/h (1 Bft) NO 45 0,000 mm 14,2 C 18,1 C 1,6 km/h (1 Bft) 95,65 %
20.07.2019 01:43 26,0 C 18,1 C 19,4 C 48 % 78 % 75 % 1016,7 hPa 0,0 l/m 0,0 km/h (0 Bft) NO 45 0,000 mm 14,2 C 18,1 C 1,6 km/h (1 Bft) 91,30 %
20.07.2019 01:42 26,0 C 18,1 C 19,4 C 48 % 78 % 75 % 1016,7 hPa 0,0 l/m 0,0 km/h (0 Bft) NO 45 0,000 mm 14,2 C 18,1 C 1,6 km/h (1 Bft) 91,30 %
20.07.2019 01:41 26,0 C 18,1 C 19,4 C 48 % 78 % 75 % 1016,6 hPa 0,0 l/m 0,0 km/h (0 Bft) NO 45 0,000 mm 14,2 C 18,1 C 1,6 km/h (1 Bft) 95,65 %
20.07.2019 01:40 26,0 C 18,1 C 19,4 C 48 % 78 % 75 % 1016,6 hPa 0,0 l/m 1,6 km/h (1 Bft) NO 45 0,000 mm 14,2 C 18,1 C 1,6 km/h (1 Bft) 100,00 %
20.07.2019 01:39 26,0 C 18,2 C 19,4 C 48 % 78 % 74 % 1016,6 hPa 0,0 l/m 1,6 km/h (1 Bft) NO 45 0,000 mm 14,3 C 18,2 C 1,6 km/h (1 Bft) 95,65 %
20.07.2019 01:38 26,1 C 18,2 C 19,4 C 48 % 78 % 74 % 1016,7 hPa 0,0 l/m 1,6 km/h (1 Bft) NO 45 0,000 mm 14,3 C 18,2 C 3,2 km/h (1 Bft) 95,65 %
20.07.2019 01:37 26,1 C 18,2 C 19,4 C 48 % 78 % 74 % 1016,7 hPa 0,0 l/m 1,6 km/h (1 Bft) NO 45 0,000 mm 14,3 C 18,2 C 3,2 km/h (1 Bft) 95,65 %
20.07.2019 01:36 26,1 C 18,2 C 19,4 C 48 % 78 % 74 % 1016,7 hPa 0,0 l/m 1,6 km/h (1 Bft) NO 45 0,000 mm 14,3 C 18,2 C 3,2 km/h (1 Bft) 91,30 %
20.07.2019 01:35 26,1 C 18,2 C 19,4 C 48 % 78 % 74 % 1016,6 hPa 0,0 l/m 1,6 km/h (1 Bft) NO 45 0,000 mm 14,3 C 18,2 C 3,2 km/h (1 Bft) 95,65 %
20.07.2019 01:34 26,1 C 18,2 C 19,4 C 48 % 78 % 74 % 1016,6 hPa 0,0 l/m 1,6 km/h (1 Bft) NO 45 0,000 mm 14,3 C 18,2 C 3,2 km/h (1 Bft) 100,00 %
20.07.2019 01:33 26,1 C 18,2 C 19,4 C 48 % 77 % 74 % 1016,7 hPa 0,0 l/m 0,0 km/h (0 Bft) NO 45 0,000 mm 14,1 C 18,2 C 1,6 km/h (1 Bft) 95,65 %
20.07.2019 01:32 26,1 C 18,2 C 19,4 C 48 % 77 % 74 % 1016,6 hPa 0,0 l/m 0,0 km/h (0 Bft) NO 45 0,000 mm 14,1 C 18,2 C 1,6 km/h (1 Bft) 100,00 %
20.07.2019 01:31 26,1 C 18,2 C 20,0 C 48 % 77 % 74 % 1016,7 hPa 0,0 l/m 0,0 km/h (0 Bft) N 0 0,000 mm 14,1 C 18,2 C 0,0 km/h (0 Bft) 95,65 %
20.07.2019 01:30 26,1 C 18,2 C 20,0 C 48 % 77 % 74 % 1016,7 hPa 0,0 l/m 0,0 km/h (0 Bft) NO 45 0,000 mm 14,1 C 18,2 C 1,6 km/h (1 Bft) 95,65 %
20.07.2019 01:29 26,1 C 18,2 C 20,0 C 47 % 77 % 74 % 1016,7 hPa 0,0 l/m 0,0 km/h (0 Bft) NO 45 0,000 mm 14,1 C 18,2 C 1,6 km/h (1 Bft) 91,30 %
20.07.2019 01:28 26,1 C 18,3 C 20,0 C 47 % 77 % 74 % 1016,6 hPa 0,0 l/m 0,0 km/h (0 Bft) NO 45 0,000 mm 14,2 C 18,3 C 1,6 km/h (1 Bft) 95,65 %
20.07.2019 01:27 26,1 C 18,3 C 20,0 C 47 % 77 % 74 % 1016,6 hPa 0,0 l/m 0,0 km/h (0 Bft) NO 45 0,000 mm 14,2 C 18,3 C 1,6 km/h (1 Bft) 95,65 %
20.07.2019 01:26 26,1 C 18,3 C 20,0 C 47 % 77 % 73 % 1016,7 hPa 0,0 l/m 1,6 km/h (1 Bft) NO 45 0,000 mm 14,2 C 18,3 C 3,2 km/h (1 Bft) 95,65 %
20.07.2019 01:25 26,1 C 18,3 C 20,0 C 48 % 77 % 73 % 1016,7 hPa 0,0 l/m 1,6 km/h (1 Bft) NO 45 0,000 mm 14,2 C 18,3 C 1,6 km/h (1 Bft) 100,00 %
20.07.2019 01:24 26,1 C 18,3 C 20,0 C 47 % 77 % 73 % 1016,6 hPa 0,0 l/m 1,6 km/h (1 Bft) NO 45 0,000 mm 14,2 C 18,3 C 3,2 km/h (1 Bft) 95,65 %
20.07.2019 01:23 26,1 C 18,3 C 20,0 C 47 % 77 % 73 % 1016,6 hPa 0,0 l/m 1,6 km/h (1 Bft) NO 45 0,000 mm 14,2 C 18,3 C 1,6 km/h (1 Bft) 100,00 %
20.07.2019 01:22 26,1 C 18,3 C 20,0 C 47 % 77 % 73 % 1016,6 hPa 0,0 l/m 1,6 km/h (1 Bft) NO 45 0,000 mm 14,2 C 18,3 C 3,2 km/h (1 Bft) 91,30 %
20.07.2019 01:21 26,1 C 18,3 C 20,0 C 47 % 76 % 73 % 1016,5 hPa 0,0 l/m 1,6 km/h (1 Bft) NO 45 0,000 mm 14,0 C 18,3 C 3,2 km/h (1 Bft) 95,65 %
20.07.2019 01:20 26,1 C 18,4 C 20,0 C 47 % 77 % 73 % 1016,6 hPa 0,0 l/m 1,6 km/h (1 Bft) NO 45 0,000 mm 14,3 C 18,4 C 3,2 km/h (1 Bft) 95,65 %
20.07.2019 01:19 26,1 C 18,4 C 20,0 C 47 % 77 % 73 % 1016,6 hPa 0,0 l/m 1,6 km/h (1 Bft) NO 45 0,000 mm 14,3 C 18,4 C 1,6 km/h (1 Bft) 95,65 %
20.07.2019 01:18 26,1 C 18,4 C 20,0 C 47 % 77 % 73 % 1016,6 hPa 0,0 l/m 1,6 km/h (1 Bft) NO 45 0,000 mm 14,3 C 18,4 C 1,6 km/h (1 Bft) 95,65 %
20.07.2019 01:17 26,1 C 18,4 C 20,0 C 47 % 76 % 73 % 1016,6 hPa 0,0 l/m 0,0 km/h (0 Bft) NO 45 0,000 mm 14,1 C 18,4 C 1,6 km/h (1 Bft) 91,30 %
20.07.2019 01:16 26,1 C 18,4 C 20,0 C 47 % 76 % 73 % 1016,6 hPa 0,0 l/m 0,0 km/h (0 Bft) N 0 0,000 mm 14,1 C 18,4 C 0,0 km/h (0 Bft) 95,65 %
20.07.2019 01:15 26,1 C 18,4 C 20,0 C 47 % 76 % 73 % 1016,6 hPa 0,0 l/m 0,0 km/h (0 Bft) N 0 0,000 mm 14,1 C 18,4 C 0,0 km/h (0 Bft) 91,30 %
20.07.2019 01:14 26,1 C 18,5 C 20,0 C 47 % 76 % 73 % 1016,6 hPa 0,0 l/m 0,0 km/h (0 Bft) N 0 0,000 mm 14,2 C 18,5 C 0,0 km/h (0 Bft) 100,00 %
20.07.2019 01:13 26,1 C 18,5 C 20,0 C 47 % 76 % 73 % 1016,6 hPa 0,0 l/m 0,0 km/h (0 Bft) NO 45 0,000 mm 14,2 C 18,5 C 1,6 km/h (1 Bft) 95,65 %
20.07.2019 01:12 26,1 C 18,5 C 20,0 C 47 % 76 % 73 % 1016,5 hPa 0,0 l/m 0,0 km/h (0 Bft) NO 45 0,000 mm 14,2 C 18,5 C 1,6 km/h (1 Bft) 100,00 %
20.07.2019 01:11 26,1 C 18,6 C 20,0 C 47 % 76 % 73 % 1016,6 hPa 0,0 l/m 0,0 km/h (0 Bft) NO 45 0,000 mm 14,3 C 18,6 C 1,6 km/h (1 Bft) 91,30 %
20.07.2019 01:10 26,1 C 18,5 C 20,0 C 47 % 76 % 73 % 1016,6 hPa 0,0 l/m 1,6 km/h (1 Bft) NO 45 0,000 mm 14,2 C 18,5 C 1,6 km/h (1 Bft) 95,65 %
20.07.2019 01:09 26,1 C 18,6 C 20,0 C 47 % 75 % 73 % 1016,6 hPa 0,0 l/m 1,6 km/h (1 Bft) NO 45 0,000 mm 14,1 C 18,6 C 1,6 km/h (1 Bft) 100,00 %
20.07.2019 01:08 26,1 C 18,6 C 20,0 C 47 % 76 % 73 % 1016,6 hPa 0,0 l/m 1,6 km/h (1 Bft) NO 45 0,000 mm 14,3 C 18,6 C 3,2 km/h (1 Bft) 86,96 %
20.07.2019 01:07 26,1 C 18,6 C 20,0 C 47 % 75 % 73 % 1016,6 hPa 0,0 l/m 1,6 km/h (1 Bft) NO 45 0,000 mm 14,1 C 18,6 C 1,6 km/h (1 Bft) 100,00 %
20.07.2019 01:06 26,1 C 18,6 C 20,0 C 47 % 75 % 73 % 1016,6 hPa 0,0 l/m 1,6 km/h (1 Bft) NO 45 0,000 mm 14,1 C 18,6 C 1,6 km/h (1 Bft) 95,65 %
20.07.2019 01:05 26,1 C 18,7 C 20,0 C 47 % 75 % 72 % 1016,6 hPa 0,0 l/m 1,6 km/h (1 Bft) NO 45 0,000 mm 14,2 C 18,7 C 1,6 km/h (1 Bft) 100,00 %
20.07.2019 01:04 26,1 C 18,6 C 20,0 C 47 % 75 % 73 % 1016,6 hPa 0,0 l/m 0,0 km/h (0 Bft) NO 45 0,000 mm 14,1 C 18,6 C 1,6 km/h (1 Bft) 95,65 %
20.07.2019 01:03 26,1 C 18,7 C 20,0 C 47 % 75 % 73 % 1016,6 hPa 0,0 l/m 1,6 km/h (1 Bft) NO 45 0,000 mm 14,2 C 18,7 C 1,6 km/h (1 Bft) 95,65 %
20.07.2019 01:02 26,1 C 18,7 C 20,0 C 47 % 75 % 72 % 1016,6 hPa 0,0 l/m 1,6 km/h (1 Bft) NO 45 0,000 mm 14,2 C 18,7 C 1,6 km/h (1 Bft) 95,65 %
20.07.2019 01:01 26,1 C 18,7 C 20,0 C 47 % 75 % 72 % 1016,6 hPa 0,0 l/m 1,6 km/h (1 Bft) NO 45 0,000 mm 14,2 C 18,7 C 3,2 km/h (1 Bft) 91,30 %
20.07.2019 01:00 26,1 C 18,7 C 20,0 C 47 % 75 % 72 % 1016,7 hPa 0,0 l/m 0,0 km/h (0 Bft) NO 45 0,000 mm 14,2 C 18,7 C 1,6 km/h (1 Bft) 100,00 %
20.07.2019 00:59 26,1 C 18,8 C 20,0 C 47 % 75 % 72 % 1016,6 hPa 0,0 l/m 1,6 km/h (1 Bft) NO 45 0,000 mm 14,3 C 18,8 C 1,6 km/h (1 Bft) 95,65 %
20.07.2019 00:58 26,1 C 18,8 C 20,0 C 47 % 75 % 72 % 1016,6 hPa 0,0 l/m 1,6 km/h (1 Bft) NO 45 0,000 mm 14,3 C 18,8 C 1,6 km/h (1 Bft) 100,00 %
20.07.2019 00:57 26,2 C 18,8 C 20,0 C 47 % 74 % 72 % 1016,6 hPa 0,0 l/m 1,6 km/h (1 Bft) NO 45 0,000 mm 14,1 C 18,8 C 1,6 km/h (1 Bft) 95,65 %
20.07.2019 00:56 26,1 C 18,8 C 20,6 C 47 % 74 % 72 % 1016,6 hPa 0,0 l/m 0,0 km/h (0 Bft) NO 45 0,000 mm 14,1 C 18,8 C 1,6 km/h (1 Bft) 95,65 %
20.07.2019 00:55 26,1 C 18,8 C 20,6 C 47 % 74 % 72 % 1016,6 hPa 0,0 l/m 1,6 km/h (1 Bft) NO 45 0,000 mm 14,1 C 18,8 C 3,2 km/h (1 Bft) 95,65 %
20.07.2019 00:54 26,2 C 18,8 C 20,6 C 47 % 74 % 72 % 1016,6 hPa 0,0 l/m 1,6 km/h (1 Bft) NO 45 0,000 mm 14,1 C 18,8 C 1,6 km/h (1 Bft) 91,30 %
20.07.2019 00:53 26,2 C 18,9 C 20,6 C 47 % 74 % 72 % 1016,6 hPa 0,0 l/m 1,6 km/h (1 Bft) NO 45 0,000 mm 14,2 C 18,9 C 1,6 km/h (1 Bft) 100,00 %
20.07.2019 00:52 26,2 C 18,9 C 20,6 C 47 % 74 % 72 % 1016,6 hPa 0,0 l/m 0,0 km/h (0 Bft) NO 45 0,000 mm 14,2 C 18,9 C 1,6 km/h (1 Bft) 100,00 %
20.07.2019 00:51 26,1 C 18,9 C 20,6 C 47 % 74 % 72 % 1016,7 hPa 0,0 l/m 1,6 km/h (1 Bft) NO 45 0,000 mm 14,2 C 18,9 C 1,6 km/h (1 Bft) 95,65 %
20.07.2019 00:50 26,2 C 18,9 C 20,6 C 47 % 74 % 72 % 1016,6 hPa 0,0 l/m 0,0 km/h (0 Bft) NO 45 0,000 mm 14,2 C 18,9 C 1,6 km/h (1 Bft) 100,00 %
20.07.2019 00:49 26,2 C 18,9 C 20,6 C 47 % 74 % 72 % 1016,6 hPa 0,0 l/m 1,6 km/h (1 Bft) NO 45 0,000 mm 14,2 C 18,9 C 1,6 km/h (1 Bft) 100,00 %
20.07.2019 00:48 26,2 C 18,9 C 20,6 C 47 % 74 % 72 % 1016,5 hPa 0,0 l/m 1,6 km/h (1 Bft) NO 45 0,000 mm 14,2 C 18,9 C 3,2 km/h (1 Bft) 100,00 %
20.07.2019 00:47 26,2 C 18,9 C 20,6 C 47 % 74 % 72 % 1016,5 hPa 0,0 l/m 1,6 km/h (1 Bft) NO 45 0,000 mm 14,2 C 18,9 C 1,6 km/h (1 Bft) 91,30 %
20.07.2019 00:46 26,2 C 19,0 C 20,6 C 47 % 74 % 72 % 1016,5 hPa 0,0 l/m 0,0 km/h (0 Bft) NO 45 0,000 mm 14,3 C 19,0 C 1,6 km/h (1 Bft) 100,00 %
20.07.2019 00:45 26,2 C 19,0 C 20,6 C 47 % 75 % 72 % 1016,5 hPa 0,0 l/m 0,0 km/h (0 Bft) NO 45 0,000 mm 14,5 C 19,0 C 1,6 km/h (1 Bft) 100,00 %
20.07.2019 00:44 26,2 C 19,1 C 20,6 C 47 % 74 % 72 % 1016,5 hPa 0,0 l/m 1,6 km/h (1 Bft) NO 45 0,000 mm 14,4 C 19,1 C 1,6 km/h (1 Bft) 95,65 %
20.07.2019 00:43 26,2 C 19,1 C 20,6 C 47 % 74 % 72 % 1016,5 hPa 0,0 l/m 1,6 km/h (1 Bft) NO 45 0,000 mm 14,4 C 19,1 C 1,6 km/h (1 Bft) 100,00 %
20.07.2019 00:42 26,2 C 19,1 C 20,6 C 47 % 74 % 72 % 1016,5 hPa 0,0 l/m 0,0 km/h (0 Bft) NO 45 0,000 mm 14,4 C 19,1 C 1,6 km/h (1 Bft) 100,00 %
20.07.2019 00:41 26,2 C 19,1 C 20,6 C 47 % 73 % 72 % 1016,5 hPa 0,0 l/m 0,0 km/h (0 Bft) NO 45 0,000 mm 14,1 C 19,1 C 1,6 km/h (1 Bft) 100,00 %
20.07.2019 00:40 26,2 C 19,1 C 20,6 C 47 % 74 % 72 % 1016,6 hPa 0,0 l/m 1,6 km/h (1 Bft) NO 45 0,000 mm 14,4 C 19,1 C 1,6 km/h (1 Bft) 91,30 %
20.07.2019 00:39 26,2 C 19,2 C 20,6 C 47 % 73 % 71 % 1016,6 hPa 0,0 l/m 0,0 km/h (0 Bft) NO 45 0,000 mm 14,2 C 19,2 C 1,6 km/h (1 Bft) 100,00 %
20.07.2019 00:38 26,2 C 19,2 C 20,6 C 47 % 74 % 72 % 1016,4 hPa 0,0 l/m 0,0 km/h (0 Bft) N 0 0,000 mm 14,4 C 19,2 C 0,0 km/h (0 Bft) 95,65 %
20.07.2019 00:37 26,2 C 19,2 C 20,6 C 47 % 73 % 71 % 1016,6 hPa 0,0 l/m 0,0 km/h (0 Bft) N 0 0,000 mm 14,2 C 19,2 C 0,0 km/h (0 Bft) 100,00 %
20.07.2019 00:36 26,2 C 19,2 C 20,6 C 47 % 73 % 71 % 1016,5 hPa 0,0 l/m 0,0 km/h (0 Bft) N 0 0,000 mm 14,2 C 19,2 C 0,0 km/h (0 Bft) 100,00 %
20.07.2019 00:35 26,2 C 19,2 C 20,6 C 47 % 73 % 71 % 1016,5 hPa 0,0 l/m 0,0 km/h (0 Bft) N 0 0,000 mm 14,2 C 19,2 C 0,0 km/h (0 Bft) 100,00 %
20.07.2019 00:34 26,2 C 19,2 C 20,6 C 47 % 73 % 71 % 1016,6 hPa 0,0 l/m 0,0 km/h (0 Bft) N 0 0,000 mm 14,2 C 19,2 C 0,0 km/h (0 Bft) 100,00 %
20.07.2019 00:33 26,2 C 19,2 C 20,6 C 47 % 73 % 71 % 1016,7 hPa 0,0 l/m 0,0 km/h (0 Bft) N 0 0,000 mm 14,2 C 19,2 C 0,0 km/h (0 Bft) 95,65 %
20.07.2019 00:32 26,2 C 19,3 C 20,6 C 47 % 73 % 71 % 1016,6 hPa 0,0 l/m 0,0 km/h (0 Bft) N 0 0,000 mm 14,3 C 19,3 C 0,0 km/h (0 Bft) 100,00 %
20.07.2019 00:31 26,2 C 19,3 C 20,6 C 47 % 72 % 71 % 1016,7 hPa 0,0 l/m 0,0 km/h (0 Bft) N 0 0,000 mm 14,1 C 19,3 C 0,0 km/h (0 Bft) 95,65 %
20.07.2019 00:30 26,2 C 19,3 C 20,6 C 47 % 73 % 71 % 1016,6 hPa 0,0 l/m 0,0 km/h (0 Bft) NO 45 0,000 mm 14,3 C 19,3 C 1,6 km/h (1 Bft) 100,00 %
20.07.2019 00:29 26,2 C 19,3 C 20,6 C 47 % 73 % 71 % 1016,6 hPa 0,0 l/m 1,6 km/h (1 Bft) NO 45 0,000 mm 14,3 C 19,3 C 1,6 km/h (1 Bft) 100,00 %
20.07.2019 00:28 26,2 C 19,3 C 20,6 C 47 % 72 % 71 % 1016,6 hPa 0,0 l/m 1,6 km/h (1 Bft) NO 45 0,000 mm 14,1 C 19,3 C 1,6 km/h (1 Bft) 100,00 %
20.07.2019 00:27 26,2 C 19,4 C 20,6 C 47 % 73 % 71 % 1016,6 hPa 0,0 l/m 1,6 km/h (1 Bft) NO 45 0,000 mm 14,4 C 19,4 C 3,2 km/h (1 Bft) 100,00 %
20.07.2019 00:26 26,2 C 19,4 C 20,6 C 47 % 72 % 71 % 1016,6 hPa 0,0 l/m 1,6 km/h (1 Bft) NO 45 0,000 mm 14,2 C 19,4 C 3,2 km/h (1 Bft) 91,30 %
20.07.2019 00:25 26,2 C 19,4 C 20,6 C 47 % 73 % 71 % 1016,6 hPa 0,0 l/m 0,0 km/h (0 Bft) NO 45 0,000 mm 14,4 C 19,4 C 1,6 km/h (1 Bft) 100,00 %
20.07.2019 00:24 26,2 C 19,4 C 20,6 C 47 % 73 % 71 % 1016,6 hPa 0,0 l/m 0,0 km/h (0 Bft) N 0 0,000 mm 14,4 C 19,4 C 0,0 km/h (0 Bft) 100,00 %
20.07.2019 00:23 26,2 C 19,4 C 21,1 C 47 % 72 % 71 % 1016,7 hPa 0,0 l/m 0,0 km/h (0 Bft) N 0 0,000 mm 14,2 C 19,4 C 0,0 km/h (0 Bft) 100,00 %
20.07.2019 00:22 26,3 C 19,4 C 21,1 C 47 % 72 % 72 % 1016,7 hPa 0,0 l/m 0,0 km/h (0 Bft) N 0 0,000 mm 14,2 C 19,4 C 0,0 km/h (0 Bft) 100,00 %
20.07.2019 00:21 26,2 C 19,4 C 21,1 C 47 % 71 % 71 % 1016,6 hPa 0,0 l/m 0,0 km/h (0 Bft) N 0 0,000 mm 14,0 C 19,4 C 0,0 km/h (0 Bft) 100,00 %
20.07.2019 00:20 26,3 C 19,5 C 21,1 C 47 % 72 % 71 % 1016,6 hPa 0,0 l/m 0,0 km/h (0 Bft) N 0 0,000 mm 14,3 C 19,5 C 0,0 km/h (0 Bft) 95,65 %
20.07.2019 00:19 26,2 C 19,5 C 21,1 C 47 % 71 % 71 % 1016,7 hPa 0,0 l/m 0,0 km/h (0 Bft) N 0 0,000 mm 14,1 C 19,5 C 0,0 km/h (0 Bft) 100,00 %
20.07.2019 00:18 26,3 C 19,6 C 21,1 C 47 % 71 % 71 % 1016,7 hPa 0,0 l/m 0,0 km/h (0 Bft) N 0 0,000 mm 14,2 C 19,6 C 0,0 km/h (0 Bft) 95,65 %
20.07.2019 00:17 26,3 C 19,6 C 21,1 C 47 % 71 % 71 % 1016,7 hPa 0,0 l/m 0,0 km/h (0 Bft) N 0 0,000 mm 14,2 C 19,6 C 0,0 km/h (0 Bft) 100,00 %
20.07.2019 00:16 26,2 C 19,6 C 21,1 C 47 % 71 % 71 % 1016,7 hPa 0,0 l/m 0,0 km/h (0 Bft) N 0 0,000 mm 14,2 C 19,6 C 0,0 km/h (0 Bft) 100,00 %
20.07.2019 00:15 26,3 C 19,6 C 21,1 C 47 % 71 % 71 % 1016,6 hPa 0,0 l/m 0,0 km/h (0 Bft) N 0 0,000 mm 14,2 C 19,6 C 0,0 km/h (0 Bft) 91,30 %
20.07.2019 00:14 26,3 C 19,6 C 21,1 C 47 % 71 % 71 % 1016,6 hPa 0,0 l/m 0,0 km/h (0 Bft) N 0 0,000 mm 14,2 C 19,6 C 0,0 km/h (0 Bft) 95,65 %
20.07.2019 00:13 26,3 C 19,6 C 21,1 C 47 % 71 % 71 % 1016,6 hPa 0,0 l/m 0,0 km/h (0 Bft) N 0 0,000 mm 14,2 C 19,6 C 0,0 km/h (0 Bft) 100,00 %
20.07.2019 00:12 26,3 C 19,6 C 21,1 C 47 % 71 % 71 % 1016,7 hPa 0,0 l/m 0,0 km/h (0 Bft) N 0 0,000 mm 14,2 C 19,6 C 0,0 km/h (0 Bft) 100,00 %
20.07.2019 00:11 26,3 C 19,7 C 21,1 C 47 % 71 % 71 % 1016,6 hPa 0,0 l/m 0,0 km/h (0 Bft) N 0 0,000 mm 14,3 C 19,7 C 0,0 km/h (0 Bft) 95,65 %
20.07.2019 00:10 26,3 C 19,6 C 21,1 C 47 % 71 % 71 % 1016,5 hPa 0,0 l/m 0,0 km/h (0 Bft) N 0 0,000 mm 14,2 C 19,6 C 0,0 km/h (0 Bft) 100,00 %
20.07.2019 00:09 26,3 C 19,7 C 21,1 C 47 % 71 % 70 % 1016,6 hPa 0,0 l/m 0,0 km/h (0 Bft) N 0 0,000 mm 14,3 C 19,7 C 0,0 km/h (0 Bft) 100,00 %
20.07.2019 00:08 26,3 C 19,7 C 21,1 C 47 % 71 % 70 % 1016,7 hPa 0,0 l/m 0,0 km/h (0 Bft) N 0 0,000 mm 14,3 C 19,7 C 0,0 km/h (0 Bft) 100,00 %
20.07.2019 00:07 26,3 C 19,7 C 21,1 C 47 % 71 % 70 % 1016,6 hPa 0,0 l/m 0,0 km/h (0 Bft) N 0 0,000 mm 14,3 C 19,7 C 0,0 km/h (0 Bft) 100,00 %
20.07.2019 00:06 26,3 C 19,7 C 21,1 C 47 % 71 % 70 % 1016,6 hPa 0,0 l/m 0,0 km/h (0 Bft) N 0 0,000 mm 14,3 C 19,7 C 0,0 km/h (0 Bft) 100,00 %
20.07.2019 00:05 26,3 C 19,7 C 21,1 C 47 % 71 % 71 % 1016,6 hPa 0,0 l/m 0,0 km/h (0 Bft) N 0 0,000 mm 14,3 C 19,7 C 0,0 km/h (0 Bft) 100,00 %
20.07.2019 00:04 26,3 C 19,8 C 21,1 C 47 % 71 % 71 % 1016,6 hPa 0,0 l/m 0,0 km/h (0 Bft) N 0 0,000 mm 14,4 C 19,8 C 0,0 km/h (0 Bft) 91,30 %
20.07.2019 00:03 26,3 C 19,8 C 21,1 C 47 % 71 % 70 % 1016,6 hPa 0,0 l/m 0,0 km/h (0 Bft) N 0 0,000 mm 14,4 C 19,8 C 0,0 km/h (0 Bft) 100,00 %
20.07.2019 00:02 26,3 C 19,8 C 21,1 C 47 % 71 % 70 % 1016,5 hPa 0,0 l/m 0,0 km/h (0 Bft) N 0 0,000 mm 14,4 C 19,8 C 0,0 km/h (0 Bft) 95,65 %
20.07.2019 00:01 26,3 C 19,8 C 21,1 C 47 % 71 % 70 % 1016,6 hPa 0,0 l/m 0,0 km/h (0 Bft) N 0 0,000 mm 14,4 C 19,8 C 0,0 km/h (0 Bft) 95,65 %
20.07.2019 00:00 26,3 C 19,8 C 21,1 C 47 % 71 % 70 % 1016,6 hPa 0,0 l/m 0,0 km/h (0 Bft) N 0 0,000 mm 14,4 C 19,8 C 0,0 km/h (0 Bft) 95,65 %
_ Min-Zeit 07:23 05:18 04:48 10:17 10:16 10:13 03:44 - 00:00 - - - 05:18 05:18 00:00 01:08
Minimum _ 25,4 C 15,8 C 17,2 C 46 % 54 % 65 % 1016,2 hPa - 0,0 km/h (0 Bft) - - - 13,6 C 15,8 C 0,0 km/h (0 Bft) 86,96 %
_ Max-Zeit 10:18 10:13 10:21 07:16 05:44 07:24 08:04 00:00 07:57 - - 00:00 09:32 10:13 10:17 00:03
Maximum _ 27,6 C 25,7 C 25,0 C 50 % 90 % 86 % 1017,1 hPa 0,0 l/m 6,4 km/h
O-SO (2 Bft)
- - 0,000 mm 17,1 C 25,7 C 11,3 km/h
N-NO (2 Bft)
100,00 %
Durchschnitt _ 26,0 C 18,8 C 19,0 C 48 % 78 % 79 % 1016,7 hPa #0,0 l/m 1,2 km/h (1 Bft) NO - #0,000 mm 14,6 C 18,8 C 2,1 km/h (1 Bft) 96,89 %